Observation data for Sierra Blanca on 01/21/2019      Previous  Date  Next       Current Mesonet Observations  Soil Data  Daily Summary Page  Observations in Plain Language
KSB1 210600Z 23005KT 08/M07 A3012 RMK A01 T00821072  RH  033%=      5-min Rain = 0
KSB1 210601Z 23005KT 08/M07 A3012 RMK A01 T00821072  RH  033%=      5-min Rain = 0
KSB1 210602Z 23005KT 08/M07 A3012 RMK A01 T00831072  RH  033%=      5-min Rain = 0
KSB1 210603Z 23005KT 08/M07 A3012 RMK A01 T00841071  RH  032%=      5-min Rain = 0
KSB1 210604Z 24005KT 09/M07 A3012 RMK A01 T00861071  RH  032%=      5-min Rain = 0
KSB1 210605Z 23005KT 09/M07 A3012 RMK A01 T00861072  RH  032%=      5-min Rain = 0
KSB1 210606Z 23005KT 09/M07 A3012 RMK A01 T00851073  RH  032%=      5-min Rain = 0
KSB1 210607Z 23006KT 08/M07 A3012 RMK A01 T00841073  RH  032%=      5-min Rain = 0
KSB1 210608Z 23006KT 08/M07 A3012 RMK A01 T00821074  RH  032%=      5-min Rain = 0
KSB1 210609Z 23006KT 08/M07 A3012 RMK A01 T00811073  RH  033%=      5-min Rain = 0
KSB1 210610Z 23007KT 08/M07 A3012 RMK A01 T00811073  RH  033%=      5-min Rain = 0
KSB1 210611Z 23007KT 08/M07 A3012 RMK A01 T00811072  RH  033%=      5-min Rain = 0
KSB1 210612Z 23007KT 08/M07 A3012 RMK A01 T00831071  RH  033%=      5-min Rain = 0
KSB1 210613Z 22007KT 08/M07 A3012 RMK A01 T00831071  RH  033%=      5-min Rain = 0
KSB1 210614Z 23006KT 08/M07 A3012 RMK A01 T00841071  RH  033%=      5-min Rain = 0
KSB1 210615Z 23007KT 09/M07 A3012 RMK A01 T00851071  RH  032%=      5-min Rain = 0
KSB1 210616Z 23007KT 08/M07 A3012 RMK A01 T00841071  RH  032%=      5-min Rain = 0
KSB1 210617Z 23007KT 09/M07 A3012 RMK A01 T00851071  RH  032%=      5-min Rain = 0
KSB1 210618Z 23006KT 09/M07 A3012 RMK A01 T00851071  RH  032%=      5-min Rain = 0
KSB1 210619Z 23006KT 09/M07 A3012 RMK A01 T00851072  RH  032%=      5-min Rain = 0
KSB1 210620Z 23006KT 08/M07 A3012 RMK A01 T00841072  RH  032%=      5-min Rain = 0
KSB1 210621Z 23006KT 08/M07 A3012 RMK A01 T00841071  RH  033%=      5-min Rain = 0
KSB1 210622Z 23005KT 08/M07 A3012 RMK A01 T00841071  RH  033%=      5-min Rain = 0
KSB1 210623Z 23005KT 08/M07 A3012 RMK A01 T00841072  RH  032%=      5-min Rain = 0
KSB1 210624Z 23005KT 08/M07 A3012 RMK A01 T00841072  RH  032%=      5-min Rain = 0
KSB1 210625Z 23005KT 09/M07 A3012 RMK A01 T00851072  RH  032%=      5-min Rain = 0
KSB1 210626Z 22006KT 08/M07 A3012 RMK A01 T00841072  RH  032%=      5-min Rain = 0
KSB1 210627Z 22006KT 08/M07 A3012 RMK A01 T00831072  RH  032%=      5-min Rain = 0
KSB1 210628Z 22006KT 08/M07 A3012 RMK A01 T00831072  RH  033%=      5-min Rain = 0
KSB1 210629Z 21005KT 08/M07 A3012 RMK A01 T00821072  RH  033%=      5-min Rain = 0
KSB1 210630Z 22006KT 08/M07 A3012 RMK A01 T00821072  RH  033%=      5-min Rain = 0
KSB1 210631Z 22006KT 08/M07 A3012 RMK A01 T00821072  RH  033%=      5-min Rain = 0
KSB1 210632Z 22006KT 08/M07 A3012 RMK A01 T00821072  RH  033%=      5-min Rain = 0
KSB1 210633Z 22006KT 08/M07 A3012 RMK A01 T00831072  RH  033%=      5-min Rain = 0
KSB1 210634Z 22006KT 08/M07 A3012 RMK A01 T00831072  RH  033%=      5-min Rain = 0
KSB1 210635Z 22006KT 08/M07 A3011 RMK A01 T00831073  RH  032%=      5-min Rain = 0
KSB1 210636Z 21006KT 08/M07 A3011 RMK A01 T00821073  RH  033%=      5-min Rain = 0
KSB1 210637Z 22006KT 08/M07 A3011 RMK A01 T00811073  RH  033%=      5-min Rain = 0
KSB1 210638Z 22005KT 08/M07 A3011 RMK A01 T00801073  RH  033%=      5-min Rain = 0
KSB1 210639Z 22005KT 08/M07 A3011 RMK A01 T00781073  RH  033%=      5-min Rain = 0
KSB1 210640Z 21005KT 08/M07 A3011 RMK A01 T00791072  RH  033%=      5-min Rain = 0
KSB1 210641Z 21005KT 08/M07 A3011 RMK A01 T00811072  RH  033%=      5-min Rain = 0
KSB1 210642Z 22005KT 08/M07 A3011 RMK A01 T00811072  RH  033%=      5-min Rain = 0
KSB1 210643Z 21004KT 08/M07 A3011 RMK A01 T00811072  RH  033%=      5-min Rain = 0
KSB1 210644Z 21004KT 08/M07 A3011 RMK A01 T00811072  RH  033%=      5-min Rain = 0
KSB1 210645Z 21003KT 08/M07 A3011 RMK A01 T00821072  RH  033%=      5-min Rain = 0
KSB1 210646Z 21004KT 08/M07 A3011 RMK A01 T00831071  RH  033%=      5-min Rain = 0
KSB1 210647Z 21003KT 08/M07 A3011 RMK A01 T00821072  RH  033%=      5-min Rain = 0
KSB1 210648Z 20003KT 08/M07 A3011 RMK A01 T00821072  RH  033%=      5-min Rain = 0
KSB1 210649Z 19003KT 08/M07 A3011 RMK A01 T00821071  RH  033%=      5-min Rain = 0
KSB1 210650Z 20002KT 08/M07 A3011 RMK A01 T00821071  RH  033%=      5-min Rain = 0
KSB1 210651Z 20002KT 08/M07 A3011 RMK A01 T00821071  RH  033%=      5-min Rain = 0
KSB1 210652Z 20002KT 08/M07 A3011 RMK A01 T00821071  RH  033%=      5-min Rain = 0
KSB1 210653Z 20002KT 08/M07 A3011 RMK A01 T00831071  RH  033%=      5-min Rain = 0
KSB1 210654Z 20003KT 09/M07 A3011 RMK A01 T00851071  RH  033%=      5-min Rain = 0
KSB1 210655Z 20003KT 09/M07 A3011 RMK A01 T00851071  RH  032%=      5-min Rain = 0
KSB1 210656Z 19003KT 09/M07 A3011 RMK A01 T00851071  RH  032%=      5-min Rain = 0
KSB1 210657Z 19003KT 09/M07 A3011 RMK A01 T00861071  RH  032%=      5-min Rain = 0
KSB1 210658Z 21002KT 09/M07 A3011 RMK A01 T00871071  RH  032%=      5-min Rain = 0
KSB1 210659Z 21002KT 09/M07 A3011 RMK A01 T00881071  RH  032%=      5-min Rain = 0
KSB1 210700Z 21002KT 09/M07 A3011 RMK A01 T00881072  RH  032%=      5-min Rain = 0
KSB1 210701Z 21002KT 09/M07 A3011 RMK A01 T00881071  RH  032%=      5-min Rain = 0
KSB1 210702Z 21002KT 09/M07 A3011 RMK A01 T00891071  RH  032%=      5-min Rain = 0
KSB1 210703Z 21002KT 09/M07 A3011 RMK A01 T00891072  RH  031%=      5-min Rain = 0
KSB1 210704Z 20002KT 09/M07 A3011 RMK A01 T00901071  RH  031%=      5-min Rain = 0
KSB1 210705Z 19003KT 09/M07 A3011 RMK A01 T00911071  RH  031%=      5-min Rain = 0
KSB1 210706Z 19003KT 09/M07 A3011 RMK A01 T00911071  RH  031%=      5-min Rain = 0
KSB1 210707Z 19003KT 09/M07 A3011 RMK A01 T00911071  RH  031%=      5-min Rain = 0
KSB1 210708Z 19003KT 09/M07 A3011 RMK A01 T00911071  RH  031%=      5-min Rain = 0
KSB1 210709Z 19003KT 09/M07 A3011 RMK A01 T00911071  RH  031%=      5-min Rain = 0
KSB1 210710Z 19004KT 09/M07 A301 RMK A01 T00911071  RH  031%=      5-min Rain = 0
KSB1 210711Z 18004KT 09/M07 A301 RMK A01 T00921070  RH  031%=      5-min Rain = 0
KSB1 210712Z 18004KT 09/M07 A301 RMK A01 T00931070  RH  031%=      5-min Rain = 0
KSB1 210713Z 19003KT 09/M07 A301 RMK A01 T00931071  RH  031%=      5-min Rain = 0
KSB1 210714Z 18004KT 09/M07 A301 RMK A01 T00911071  RH  031%=      5-min Rain = 0
KSB1 210715Z 18005KT 09/M07 A301 RMK A01 T00891072  RH  031%=      5-min Rain = 0
KSB1 210716Z 18005KT 09/M07 A301 RMK A01 T00881072  RH  032%=      5-min Rain = 0
KSB1 210717Z 18005KT 09/M07 A301 RMK A01 T00861073  RH  032%=      5-min Rain = 0
KSB1 210718Z 18006KT 08/M07 A301 RMK A01 T00831073  RH  032%=      5-min Rain = 0
KSB1 210719Z 18007KT 08/M07 A301 RMK A01 T00831072  RH  033%=      5-min Rain = 0
KSB1 210720Z 18007KT 08/M07 A301 RMK A01 T00821072  RH  033%=      5-min Rain = 0
KSB1 210721Z 18007KT 08/M07 A301 RMK A01 T00811072  RH  033%=      5-min Rain = 0
KSB1 210722Z 18007KT 08/M07 A301 RMK A01 T00811072  RH  033%=      5-min Rain = 0
KSB1 210723Z 17008KT 08/M07 A301 RMK A01 T00801072  RH  033%=      5-min Rain = 0
KSB1 210724Z 17008KT 08/M07 A301 RMK A01 T00791072  RH  033%=      5-min Rain = 0
KSB1 210725Z 17006KT 08/M07 A301 RMK A01 T00801071  RH  033%=      5-min Rain = 0
KSB1 210726Z 18005KT 08/M07 A301 RMK A01 T00791073  RH  033%=      5-min Rain = 0
KSB1 210727Z 18006KT 08/M07 A301 RMK A01 T00771074  RH  034%=      5-min Rain = 0
KSB1 210728Z 17006KT 08/M07 A301 RMK A01 T00751073  RH  034%=      5-min Rain = 0
KSB1 210729Z 17006KT 08/M07 A301 RMK A01 T00751072  RH  034%=      5-min Rain = 0
KSB1 210730Z 17005KT 08/M07 A301 RMK A01 T00761072  RH  034%=      5-min Rain = 0
KSB1 210731Z 18005KT 08/M07 A301 RMK A01 T00761072  RH  034%=      5-min Rain = 0
KSB1 210732Z 17006KT 07/M07 A301 RMK A01 T00741073  RH  034%=      5-min Rain = 0
KSB1 210733Z 17005KT 07/M07 A301 RMK A01 T00741073  RH  035%=      5-min Rain = 0
KSB1 210734Z 16005KT 07/M07 A301 RMK A01 T00741072  RH  035%=      5-min Rain = 0
KSB1 210735Z 16005KT 08/M07 A301 RMK A01 T00751071  RH  035%=      5-min Rain = 0
KSB1 210736Z 16005KT 08/M07 A301 RMK A01 T00751071  RH  035%=      5-min Rain = 0
KSB1 210737Z 16005KT 08/M07 A301 RMK A01 T00761071  RH  034%=      5-min Rain = 0
KSB1 210738Z 17004KT 08/M07 A301 RMK A01 T00761071  RH  034%=      5-min Rain = 0
KSB1 210739Z 17003KT 08/M07 A301 RMK A01 T00761072  RH  034%=      5-min Rain = 0
KSB1 210740Z 17003KT 08/M07 A3009 RMK A01 T00761072  RH  034%=      5-min Rain = 0
KSB1 210741Z 16004KT 08/M07 A3009 RMK A01 T00761071  RH  034%=      5-min Rain = 0
KSB1 210742Z 16004KT 08/M07 A3009 RMK A01 T00761071  RH  034%=      5-min Rain = 0
KSB1 210743Z 16005KT 08/M07 A3009 RMK A01 T00771071  RH  034%=      5-min Rain = 0
KSB1 210744Z 16005KT 08/M07 A3009 RMK A01 T00771071  RH  034%=      5-min Rain = 0
KSB1 210745Z 16005KT 08/M07 A3009 RMK A01 T00791071  RH  034%=      5-min Rain = 0
KSB1 210746Z 17004KT 08/M07 A3009 RMK A01 T00801071  RH  034%=      5-min Rain = 0
KSB1 210747Z 17004KT 08/M07 A3009 RMK A01 T00781072  RH  034%=      5-min Rain = 0
KSB1 210748Z 17005KT 08/M07 A3009 RMK A01 T00761073  RH  034%=      5-min Rain = 0
KSB1 210749Z 16005KT 08/M07 A3009 RMK A01 T00761073  RH  034%=      5-min Rain = 0
KSB1 210750Z 16005KT 08/M07 A3009 RMK A01 T00771071  RH  034%=      5-min Rain = 0
KSB1 210751Z 17005KT 08/M07 A3009 RMK A01 T00771072  RH  034%=      5-min Rain = 0
KSB1 210752Z 17005KT 08/M07 A3009 RMK A01 T00761073  RH  034%=      5-min Rain = 0
KSB1 210753Z 18004KT 08/M07 A3009 RMK A01 T00751073  RH  034%=      5-min Rain = 0
KSB1 210754Z 18005KT 08/M07 A3009 RMK A01 T00751072  RH  034%=      5-min Rain = 0
KSB1 210755Z 18005KT 08/M07 A3009 RMK A01 T00751072  RH  034%=      5-min Rain = 0
KSB1 210756Z 19005KT 08/M07 A3009 RMK A01 T00751073  RH  034%=      5-min Rain = 0
KSB1 210757Z 18005KT 07/M07 A3009 RMK A01 T00741072  RH  035%=      5-min Rain = 0
KSB1 210758Z 18005KT 07/M07 A3009 RMK A01 T00731072  RH  035%=      5-min Rain = 0
KSB1 210759Z 19005KT 07/M07 A3009 RMK A01 T00731072  RH  035%=      5-min Rain = 0
KSB1 210800Z 19005KT 07/M07 A3009 RMK A01 T00731072  RH  035%=      5-min Rain = 0
KSB1 210801Z 19004KT 07/M07 A3009 RMK A01 T00721073  RH  035%=      5-min Rain = 0
KSB1 210802Z 20004KT 07/M07 A3009 RMK A01 T00711072  RH  035%=      5-min Rain = 0
KSB1 210803Z 20004KT 07/M07 A3008 RMK A01 T00721071  RH  035%=      5-min Rain = 0
KSB1 210804Z 22003KT 08/M07 A3008 RMK A01 T00751070  RH  035%=      5-min Rain = 0
KSB1 210805Z 22003KT 08/M07 A3008 RMK A01 T00761070  RH  035%=      5-min Rain = 0
KSB1 210806Z 22003KT 08/M07 A3008 RMK A01 T00771071  RH  034%=      5-min Rain = 0
KSB1 210807Z 21003KT 08/M07 A3008 RMK A01 T00781071  RH  034%=      5-min Rain = 0
KSB1 210808Z 22003KT 08/M07 A3008 RMK A01 T00801071  RH  033%=      5-min Rain = 0
KSB1 210809Z 22003KT 08/M07 A3008 RMK A01 T00811071  RH  033%=      5-min Rain = 0
KSB1 210810Z 21002KT 08/M07 A3008 RMK A01 T00821071  RH  033%=      5-min Rain = 0
KSB1 210811Z 21002KT 08/M07 A3008 RMK A01 T00811072  RH  033%=      5-min Rain = 0
KSB1 210812Z 22002KT 08/M07 A3008 RMK A01 T00821071  RH  033%=      5-min Rain = 0
KSB1 210813Z 20003KT 08/M07 A3008 RMK A01 T00821072  RH  033%=      5-min Rain = 0
KSB1 210814Z 22003KT 08/M07 A3008 RMK A01 T00831071  RH  033%=      5-min Rain = 0
KSB1 210815Z 22002KT 08/M07 A3008 RMK A01 T00841072  RH  033%=      5-min Rain = 0
KSB1 210816Z 22002KT 08/M07 A3008 RMK A01 T00841072  RH  032%=      5-min Rain = 0
KSB1 210817Z 23001KT 09/M07 A3008 RMK A01 T00851072  RH  032%=      5-min Rain = 0
KSB1 210818Z 25001KT 08/M07 A3008 RMK A01 T00841072  RH  032%=      5-min Rain = 0
KSB1 210819Z 26001KT 08/M07 A3008 RMK A01 T00841073  RH  032%=      5-min Rain = 0
KSB1 210820Z 25001KT 08/M07 A3008 RMK A01 T00831073  RH  032%=      5-min Rain = 0
KSB1 210821Z 26001KT 08/M07 A3008 RMK A01 T00831073  RH  032%=      5-min Rain = 0
KSB1 210822Z 25002KT 08/M07 A3008 RMK A01 T00841073  RH  032%=      5-min Rain = 0
KSB1 210823Z 24002KT 09/M07 A3008 RMK A01 T00871072  RH  032%=      5-min Rain = 0
KSB1 210824Z 22002KT 09/M07 A3008 RMK A01 T00891072  RH  031%=      5-min Rain = 0
KSB1 210825Z 21003KT 09/M07 A3008 RMK A01 T00891072  RH  031%=      5-min Rain = 0
KSB1 210826Z 20003KT 09/M07 A3008 RMK A01 T00881073  RH  031%=      5-min Rain = 0
KSB1 210827Z 20003KT 09/M07 A3008 RMK A01 T00881073  RH  031%=      5-min Rain = 0
KSB1 210828Z 20004KT 09/M07 A3008 RMK A01 T00881073  RH  031%=      5-min Rain = 0
KSB1 210829Z 19005KT 09/M08 A3008 RMK A01 T00871075  RH  031%=      5-min Rain = 0
KSB1 210830Z 19005KT 09/M08 A3008 RMK A01 T00861076  RH  031%=      5-min Rain = 0
KSB1 210831Z 20006KT 09/M08 A3008 RMK A01 T00851075  RH  031%=      5-min Rain = 0
KSB1 210832Z 19006KT 08/M08 A3008 RMK A01 T00841076  RH  031%=      5-min Rain = 0
KSB1 210833Z 19006KT 08/M08 A3008 RMK A01 T00831076  RH  032%=      5-min Rain = 0
KSB1 210834Z 20005KT 08/M08 A3008 RMK A01 T00821076  RH  032%=      5-min Rain = 0
KSB1 210835Z 20005KT 08/M08 A3008 RMK A01 T00821076  RH  032%=      5-min Rain = 0
KSB1 210836Z 18005KT 08/M08 A3008 RMK A01 T00801077  RH  032%=      5-min Rain = 0
KSB1 210837Z 18005KT 08/M08 A3008 RMK A01 T00781078  RH  032%=      5-min Rain = 0
KSB1 210838Z 18005KT 08/M08 A3008 RMK A01 T00761078  RH  033%=      5-min Rain = 0
KSB1 210839Z 19005KT 07/M08 A3008 RMK A01 T00741079  RH  033%=      5-min Rain = 0
KSB1 210840Z 18005KT 07/M08 A3008 RMK A01 T00741078  RH  033%=      5-min Rain = 0
KSB1 210841Z 18005KT 07/M08 A3008 RMK A01 T00731078  RH  033%=      5-min Rain = 0
KSB1 210842Z 17005KT 07/M08 A3007 RMK A01 T00741078  RH  033%=      5-min Rain = 0
KSB1 210843Z 18005KT 08/M08 A3007 RMK A01 T00751078  RH  033%=      5-min Rain = 0
KSB1 210844Z 19006KT 08/M08 A3007 RMK A01 T00761078  RH  033%=      5-min Rain = 0
KSB1 210845Z 19005KT 08/M08 A3007 RMK A01 T00761078  RH  033%=      5-min Rain = 0
KSB1 210846Z 19005KT 08/M08 A3007 RMK A01 T00751079  RH  033%=      5-min Rain = 0
KSB1 210847Z 19005KT 07/M08 A3007 RMK A01 T00731080  RH  033%=      5-min Rain = 0
KSB1 210848Z 20005KT 07/M08 A3007 RMK A01 T00721080  RH  033%=      5-min Rain = 0
KSB1 210849Z 20005KT 07/M08 A3007 RMK A01 T00711079  RH  033%=      5-min Rain = 0
KSB1 210850Z 20006KT 07/M08 A3007 RMK A01 T00701079  RH  034%=      5-min Rain = 0
KSB1 210851Z 18005KT 07/M08 A3007 RMK A01 T00691079  RH  034%=      5-min Rain = 0
KSB1 210852Z 19004KT 07/M08 A3007 RMK A01 T00681079  RH  034%=      5-min Rain = 0
KSB1 210853Z 20005KT 07/M08 A3007 RMK A01 T00671079  RH  035%=      5-min Rain = 0
KSB1 210854Z 20006KT 07/M08 A3007 RMK A01 T00671078  RH  035%=      5-min Rain = 0
KSB1 210855Z 20004KT 07/M08 A3007 RMK A01 T00681079  RH  034%=      5-min Rain = 0
KSB1 210856Z 19004KT 07/M08 A3007 RMK A01 T00681078  RH  034%=      5-min Rain = 0
KSB1 210857Z 19003KT 07/M08 A3007 RMK A01 T00681078  RH  034%=      5-min Rain = 0
KSB1 210858Z 20004KT 07/M08 A3007 RMK A01 T00681078  RH  034%=      5-min Rain = 0
KSB1 210859Z 19005KT 07/M08 A3007 RMK A01 T00681079  RH  034%=      5-min Rain = 0
KSB1 210900Z 19004KT 07/M08 A3007 RMK A01 T00701078  RH  034%=      5-min Rain = 0
KSB1 210901Z 20005KT 07/M08 A3007 RMK A01 T00711077  RH  034%=      5-min Rain = 0
KSB1 210902Z 19005KT 07/M08 A3006 RMK A01 T00731077  RH  034%=      5-min Rain = 0
KSB1 210903Z 19005KT 07/M08 A3006 RMK A01 T00731077  RH  033%=      5-min Rain = 0
KSB1 210904Z 19005KT 07/M08 A3006 RMK A01 T00741078  RH  033%=      5-min Rain = 0
KSB1 210905Z 19004KT 07/M08 A3006 RMK A01 T00741078  RH  033%=      5-min Rain = 0
KSB1 210906Z 20005KT 07/M08 A3006 RMK A01 T00731079  RH  033%=      5-min Rain = 0
KSB1 210907Z 20005KT 07/M08 A3006 RMK A01 T00721079  RH  033%=      5-min Rain = 0
KSB1 210908Z 21005KT 07/M08 A3006 RMK A01 T00721079  RH  033%=      5-min Rain = 0
KSB1 210909Z 21006KT 07/M08 A3006 RMK A01 T00721079  RH  033%=      5-min Rain = 0
KSB1 210910Z 21005KT 07/M08 A3006 RMK A01 T00711079  RH  033%=      5-min Rain = 0
KSB1 210911Z 19005KT 07/M08 A3006 RMK A01 T00701080  RH  034%=      5-min Rain = 0
KSB1 210912Z 19005KT 07/M08 A3006 RMK A01 T00691080  RH  034%=      5-min Rain = 0
KSB1 210913Z 21006KT 07/M08 A3006 RMK A01 T00691080  RH  034%=      5-min Rain = 0
KSB1 210914Z 22006KT 07/M08 A3006 RMK A01 T00701079  RH  034%=      5-min Rain = 0
KSB1 210915Z 22007KT 07/M08 A3006 RMK A01 T00701079  RH  034%=      5-min Rain = 0
KSB1 210916Z 21007KT 07/M08 A3006 RMK A01 T00691080  RH  034%=      5-min Rain = 0
KSB1 210917Z 21008KT 07/M08 A3006 RMK A01 T00691079  RH  034%=      5-min Rain = 0
KSB1 210918Z 22008KT 07/M08 A3006 RMK A01 T00711078  RH  034%=      5-min Rain = 0
KSB1 210919Z 22007KT 07/M08 A3006 RMK A01 T00731079  RH  033%=      5-min Rain = 0
KSB1 210920Z 22007KT 08/M08 A3006 RMK A01 T00751079  RH  033%=      5-min Rain = 0
KSB1 210921Z 22006KT 08/M08 A3006 RMK A01 T00761078  RH  033%=      5-min Rain = 0
KSB1 210922Z 22007KT 08/M08 A3006 RMK A01 T00771078  RH  032%=      5-min Rain = 0
KSB1 210923Z 22007KT 08/M08 A3006 RMK A01 T00771078  RH  032%=      5-min Rain = 0
KSB1 210924Z 22007KT 08/M08 A3006 RMK A01 T00771078  RH  032%=      5-min Rain = 0
KSB1 210925Z 22006KT 08/M08 A3006 RMK A01 T00781078  RH  032%=      5-min Rain = 0
KSB1 210926Z 22006KT 08/M08 A3006 RMK A01 T00781079  RH  032%=      5-min Rain = 0
KSB1 210927Z 21007KT 08/M08 A3006 RMK A01 T00781079  RH  032%=      5-min Rain = 0
KSB1 210928Z 21008KT 08/M08 A3006 RMK A01 T00781079  RH  032%=      5-min Rain = 0
KSB1 210929Z 21007KT 08/M08 A3006 RMK A01 T00791079  RH  032%=      5-min Rain = 0
KSB1 210930Z 21007KT 08/M08 A3006 RMK A01 T00801079  RH  032%=      5-min Rain = 0
KSB1 210931Z 21007KT 08/M08 A3006 RMK A01 T00801079  RH  031%=      5-min Rain = 0
KSB1 210932Z 21006KT 08/M08 A3006 RMK A01 T00801079  RH  031%=      5-min Rain = 0
KSB1 210933Z 21005KT 08/M08 A3006 RMK A01 T00801079  RH  031%=      5-min Rain = 0
KSB1 210934Z 21005KT 08/M08 A3006 RMK A01 T00801079  RH  031%=      5-min Rain = 0
KSB1 210935Z 22006KT 08/M08 A3006 RMK A01 T00801079  RH  031%=      5-min Rain = 0
KSB1 210936Z 22006KT 08/M08 A3006 RMK A01 T00791080  RH  031%=      5-min Rain = 0
KSB1 210937Z 22006KT 08/M08 A3006 RMK A01 T00781080  RH  032%=      5-min Rain = 0
KSB1 210938Z 23007KT 08/M08 A3006 RMK A01 T00771080  RH  032%=      5-min Rain = 0
KSB1 210939Z 23006KT 08/M08 A3006 RMK A01 T00771079  RH  032%=      5-min Rain = 0
KSB1 210940Z 22006KT 08/M08 A3006 RMK A01 T00771079  RH  032%=      5-min Rain = 0
KSB1 210941Z 22007KT 08/M08 A3006 RMK A01 T00771079  RH  032%=      5-min Rain = 0
KSB1 210942Z 22007KT 08/M08 A3005 RMK A01 T00751080  RH  032%=      5-min Rain = 0
KSB1 210943Z 21007KT 07/M08 A3005 RMK A01 T00741080  RH  033%=      5-min Rain = 0
KSB1 210944Z 20006KT 07/M08 A3005 RMK A01 T00731080  RH  033%=      5-min Rain = 0
KSB1 210945Z 20006KT 07/M08 A3005 RMK A01 T00731080  RH  033%=      5-min Rain = 0
KSB1 210946Z 20005KT 07/M08 A3005 RMK A01 T00731079  RH  033%=      5-min Rain = 0
KSB1 210947Z 20004KT 07/M08 A3005 RMK A01 T00741080  RH  033%=      5-min Rain = 0
KSB1 210948Z 20005KT 07/M08 A3005 RMK A01 T00741080  RH  033%=      5-min Rain = 0
KSB1 210949Z 20005KT 07/M08 A3005 RMK A01 T00731080  RH  033%=      5-min Rain = 0
KSB1 210950Z 21005KT 07/M08 A3005 RMK A01 T00731080  RH  033%=      5-min Rain = 0
KSB1 210951Z 21006KT 07/M08 A3005 RMK A01 T00731080  RH  033%=      5-min Rain = 0
KSB1 210952Z 21006KT 07/M08 A3005 RMK A01 T00721080  RH  033%=      5-min Rain = 0
KSB1 210953Z 21005KT 07/M08 A3005 RMK A01 T00731079  RH  033%=      5-min Rain = 0
KSB1 210954Z 22006KT 07/M08 A3005 RMK A01 T00731079  RH  033%=      5-min Rain = 0
KSB1 210955Z 23006KT 07/M08 A3005 RMK A01 T00721080  RH  033%=      5-min Rain = 0
KSB1 210956Z 22006KT 07/M08 A3005 RMK A01 T00701081  RH  033%=      5-min Rain = 0
KSB1 210957Z 22006KT 07/M08 A3005 RMK A01 T00701080  RH  034%=      5-min Rain = 0
KSB1 210958Z 22007KT 07/M08 A3005 RMK A01 T00691079  RH  034%=      5-min Rain = 0
KSB1 210959Z 22007KT 07/M08 A3005 RMK A01 T00691079  RH  034%=      5-min Rain = 0
KSB1 211000Z 22006KT 07/M08 A3005 RMK A01 T00691078  RH  034%=      5-min Rain = 0
KSB1 211001Z 21006KT 07/M08 A3005 RMK A01 T00711078  RH  034%=      5-min Rain = 0
KSB1 211002Z 20005KT 07/M08 A3005 RMK A01 T00701079  RH  034%=      5-min Rain = 0
KSB1 211003Z 21006KT 07/M08 A3006 RMK A01 T00681081  RH  034%=      5-min Rain = 0
KSB1 211004Z 22006KT 07/M08 A3006 RMK A01 T00681080  RH  034%=      5-min Rain = 0
KSB1 211005Z 22005KT 07/M08 A3006 RMK A01 T00671080  RH  034%=      5-min Rain = 0
KSB1 211006Z 22007KT 07/M08 A3006 RMK A01 T00661080  RH  034%=      5-min Rain = 0
KSB1 211007Z 23007KT 07/M08 A3006 RMK A01 T00661079  RH  035%=      5-min Rain = 0
KSB1 211008Z 22008KT 07/M08 A3006 RMK A01 T00661078  RH  035%=      5-min Rain = 0
KSB1 211009Z 22008KT 07/M08 A3006 RMK A01 T00651077  RH  035%=      5-min Rain = 0
KSB1 211010Z 22008KT 07/M08 A3005 RMK A01 T00651077  RH  036%=      5-min Rain = 0
KSB1 211011Z 21008KT 07/M08 A3005 RMK A01 T00661076  RH  035%=      5-min Rain = 0
KSB1 211012Z 21008KT 07/M08 A3005 RMK A01 T00681076  RH  035%=      5-min Rain = 0
KSB1 211013Z 20007KT 07/M08 A3005 RMK A01 T00681077  RH  035%=      5-min Rain = 0
KSB1 211014Z 20007KT 07/M08 A3005 RMK A01 T00681078  RH  035%=      5-min Rain = 0
KSB1 211015Z 20009KT 07/M08 A3005 RMK A01 T00681078  RH  035%=      5-min Rain = 0
KSB1 211016Z 20009KT 07/M08 A3005 RMK A01 T00681078  RH  035%=      5-min Rain = 0
KSB1 211017Z 20009KT 07/M08 A3005 RMK A01 T00691078  RH  034%=      5-min Rain = 0
KSB1 211018Z 20010KT 07/M08 A3005 RMK A01 T00701077  RH  034%=      5-min Rain = 0
KSB1 211019Z 20010KT 07/M08 A3005 RMK A01 T00701076  RH  034%=      5-min Rain = 0
KSB1 211020Z 20008KT 07/M08 A3005 RMK A01 T00711076  RH  034%=      5-min Rain = 0
KSB1 211021Z 21009KT 07/M08 A3005 RMK A01 T00711076  RH  034%=      5-min Rain = 0
KSB1 211022Z 20009KT 07/M08 A3005 RMK A01 T00701077  RH  034%=      5-min Rain = 0
KSB1 211023Z 20009KT 07/M08 A3005 RMK A01 T00701077  RH  034%=      5-min Rain = 0
KSB1 211024Z 20009KT 07/M08 A3004 RMK A01 T00701077  RH  034%=      5-min Rain = 0
KSB1 211025Z 20009KT 07/M08 A3004 RMK A01 T00701077  RH  034%=      5-min Rain = 0
KSB1 211026Z 20009KT 07/M08 A3004 RMK A01 T00691077  RH  034%=      5-min Rain = 0
KSB1 211027Z 20009KT 07/M08 A3004 RMK A01 T00691077  RH  034%=      5-min Rain = 0
KSB1 211028Z 20008KT 07/M08 A3004 RMK A01 T00691077  RH  034%=      5-min Rain = 0
KSB1 211029Z 20008KT 07/M08 A3004 RMK A01 T00681077  RH  035%=      5-min Rain = 0
KSB1 211030Z 19008KT 07/M08 A3004 RMK A01 T00681077  RH  035%=      5-min Rain = 0
KSB1 211031Z 19008KT 07/M08 A3004 RMK A01 T00681077  RH  035%=      5-min Rain = 0
KSB1 211032Z 20008KT 07/M08 A3004 RMK A01 T00691077  RH  035%=      5-min Rain = 0
KSB1 211033Z 20008KT 07/M08 A3004 RMK A01 T00691077  RH  035%=      5-min Rain = 0
KSB1 211034Z 20007KT 07/M08 A3004 RMK A01 T00691077  RH  034%=      5-min Rain = 0
KSB1 211035Z 21007KT 07/M08 A3004 RMK A01 T00691077  RH  034%=      5-min Rain = 0
KSB1 211036Z 21008KT 07/M08 A3004 RMK A01 T00691077  RH  034%=      5-min Rain = 0
KSB1 211037Z 21009KT 07/M08 A3004 RMK A01 T00691077  RH  034%=      5-min Rain = 0
KSB1 211038Z 21008KT 07/M08 A3004 RMK A01 T00691077  RH  034%=      5-min Rain = 0
KSB1 211039Z 21008KT 07/M08 A3004 RMK A01 T00701077  RH  034%=      5-min Rain = 0
KSB1 211040Z 21009KT 07/M08 A3004 RMK A01 T00701077  RH  034%=      5-min Rain = 0
KSB1 211041Z 21008KT 07/M08 A3004 RMK A01 T00701077  RH  034%=      5-min Rain = 0
KSB1 211042Z 22009KT 07/M08 A3004 RMK A01 T00701077  RH  034%=      5-min Rain = 0
KSB1 211043Z 22009KT 07/M08 A3004 RMK A01 T00711077  RH  034%=      5-min Rain = 0
KSB1 211044Z 22009KT 07/M08 A3004 RMK A01 T00701077  RH  034%=      5-min Rain = 0
KSB1 211045Z 21009KT 07/M08 A3004 RMK A01 T00701077  RH  034%=      5-min Rain = 0
KSB1 211046Z 21008KT 07/M08 A3004 RMK A01 T00711077  RH  034%=      5-min Rain = 0
KSB1 211047Z 22008KT 07/M08 A3004 RMK A01 T00711077  RH  034%=      5-min Rain = 0
KSB1 211048Z 21008KT 07/M08 A3004 RMK A01 T00701077  RH  034%=      5-min Rain = 0
KSB1 211049Z 22008KT 07/M08 A3004 RMK A01 T00701078  RH  034%=      5-min Rain = 0
KSB1 211050Z 21008KT 07/M08 A3004 RMK A01 T00691078  RH  034%=      5-min Rain = 0
KSB1 211051Z 21009KT 07/M08 A3004 RMK A01 T00691078  RH  034%=      5-min Rain = 0
KSB1 211052Z 21008KT 07/M08 A3004 RMK A01 T00701077  RH  034%=      5-min Rain = 0
KSB1 211053Z 21008KT 07/M08 A3003 RMK A01 T00711077  RH  034%=      5-min Rain = 0
KSB1 211054Z 21008KT 07/M08 A3003 RMK A01 T00701078  RH  034%=      5-min Rain = 0
KSB1 211055Z 21008KT 07/M08 A3003 RMK A01 T00691078  RH  034%=      5-min Rain = 0
KSB1 211056Z 21008KT 07/M08 A3003 RMK A01 T00691077  RH  034%=      5-min Rain = 0
KSB1 211057Z 21008KT 07/M08 A3003 RMK A01 T00701077  RH  034%=      5-min Rain = 0
KSB1 211058Z 21008KT 07/M08 A3003 RMK A01 T00711077  RH  034%=      5-min Rain = 0
KSB1 211059Z 21007KT 07/M08 A3003 RMK A01 T00711077  RH  034%=      5-min Rain = 0
KSB1 211100Z 20008KT 07/M08 A3003 RMK A01 T00711077  RH  034%=      5-min Rain = 0
KSB1 211101Z 21007KT 07/M08 A3003 RMK A01 T00711077  RH  034%=      5-min Rain = 0
KSB1 211102Z 21007KT 07/M08 A3003 RMK A01 T00701077  RH  034%=      5-min Rain = 0
KSB1 211103Z 21007KT 07/M08 A3003 RMK A01 T00701077  RH  034%=      5-min Rain = 0
KSB1 211104Z 22008KT 07/M08 A3003 RMK A01 T00711077  RH  034%=      5-min Rain = 0
KSB1 211105Z 22008KT 07/M08 A3003 RMK A01 T00711077  RH  034%=      5-min Rain = 0
KSB1 211106Z 22008KT 07/M08 A3003 RMK A01 T00701077  RH  034%=      5-min Rain = 0
KSB1 211107Z 21008KT 07/M08 A3003 RMK A01 T00701076  RH  035%=      5-min Rain = 0
KSB1 211108Z 21007KT 07/M08 A3003 RMK A01 T00701076  RH  035%=      5-min Rain = 0
KSB1 211109Z 21007KT 07/M08 A3003 RMK A01 T00711075  RH  034%=      5-min Rain = 0
KSB1 211110Z 21008KT 07/M08 A3003 RMK A01 T00711076  RH  034%=      5-min Rain = 0
KSB1 211111Z 22008KT 07/M08 A3003 RMK A01 T00701076  RH  035%=      5-min Rain = 0
KSB1 211112Z 22008KT 07/M08 A3003 RMK A01 T00701076  RH  035%=      5-min Rain = 0
KSB1 211113Z 22008KT 07/M08 A3003 RMK A01 T00701075  RH  035%=      5-min Rain = 0
KSB1 211114Z 22008KT 07/M08 A3003 RMK A01 T00701075  RH  035%=      5-min Rain = 0
KSB1 211115Z 22008KT 07/M07 A3003 RMK A01 T00711074  RH  035%=      5-min Rain = 0
KSB1 211116Z 22008KT 07/M07 A3003 RMK A01 T00711074  RH  035%=      5-min Rain = 0
KSB1 211117Z 22009KT 07/M08 A3003 RMK A01 T00701075  RH  035%=      5-min Rain = 0
KSB1 211118Z 22010KT 07/M07 A3003 RMK A01 T00701074  RH  035%=      5-min Rain = 0
KSB1 211119Z 22010KT 07/M07 A3003 RMK A01 T00701074  RH  035%=      5-min Rain = 0
KSB1 211120Z 22010KT 07/M07 A3003 RMK A01 T00711074  RH  035%=      5-min Rain = 0
KSB1 211121Z 22009KT 07/M07 A3003 RMK A01 T00741074  RH  034%=      5-min Rain = 0
KSB1 211122Z 22009KT 07/M08 A3003 RMK A01 T00741075  RH  034%=      5-min Rain = 0
KSB1 211123Z 22010KT 07/M08 A3003 RMK A01 T00731075  RH  034%=      5-min Rain = 0
KSB1 211124Z 22010KT 07/M08 A3003 RMK A01 T00721075  RH  034%=      5-min Rain = 0
KSB1 211125Z 21010KT 07/M08 A3003 RMK A01 T00721075  RH  034%=      5-min Rain = 0
KSB1 211126Z 22010KT 07/M07 A3002 RMK A01 T00731074  RH  034%=      5-min Rain = 0
KSB1 211127Z 22010KT 07/M07 A3002 RMK A01 T00741074  RH  034%=      5-min Rain = 0
KSB1 211128Z 22011KT 08/M07 A3002 RMK A01 T00751074  RH  034%=      5-min Rain = 0
KSB1 211129Z 22010KT 08/M07 A3002 RMK A01 T00751074  RH  034%=      5-min Rain = 0
KSB1 211130Z 22009KT 08/M07 A3002 RMK A01 T00751074  RH  034%=      5-min Rain = 0
KSB1 211131Z 22010KT 07/M07 A3002 RMK A01 T00741074  RH  034%=      5-min Rain = 0
KSB1 211132Z 22010KT 07/M07 A3002 RMK A01 T00731074  RH  034%=      5-min Rain = 0
KSB1 211133Z 22009KT 07/M07 A3002 RMK A01 T00741073  RH  034%=      5-min Rain = 0
KSB1 211134Z 21009KT 08/M07 A3002 RMK A01 T00751073  RH  034%=      5-min Rain = 0
KSB1 211135Z 22009KT 08/M07 A3002 RMK A01 T00751073  RH  034%=      5-min Rain = 0
KSB1 211136Z 22010KT 07/M07 A3002 RMK A01 T00741073  RH  034%=      5-min Rain = 0
KSB1 211137Z 22009KT 07/M07 A3003 RMK A01 T00741073  RH  034%=      5-min Rain = 0
KSB1 211138Z 22010KT 07/M07 A3003 RMK A01 T00741074  RH  034%=      5-min Rain = 0
KSB1 211139Z 22009KT 08/M07 A3003 RMK A01 T00751073  RH  034%=      5-min Rain = 0
KSB1 211140Z 22008KT 07/M07 A3003 RMK A01 T00741073  RH  034%=      5-min Rain = 0
KSB1 211141Z 22009KT 07/M07 A3003 RMK A01 T00731074  RH  034%=      5-min Rain = 0
KSB1 211142Z 22009KT 07/M07 A3003 RMK A01 T00731073  RH  034%=      5-min Rain = 0
KSB1 211143Z 21009KT 07/M07 A3003 RMK A01 T00741073  RH  034%=      5-min Rain = 0
KSB1 211144Z 22010KT 07/M07 A3003 RMK A01 T00741073  RH  034%=      5-min Rain = 0
KSB1 211145Z 22009KT 08/M07 A3003 RMK A01 T00751073  RH  034%=      5-min Rain = 0
KSB1 211146Z 22009KT 08/M07 A3003 RMK A01 T00761073  RH  034%=      5-min Rain = 0
KSB1 211147Z 21008KT 08/M07 A3003 RMK A01 T00761073  RH  034%=      5-min Rain = 0
KSB1 211148Z 21008KT 08/M07 A3003 RMK A01 T00751073  RH  034%=      5-min Rain = 0
KSB1 211149Z 21009KT 07/M07 A3003 RMK A01 T00741073  RH  034%=      5-min Rain = 0
KSB1 211150Z 21010KT 07/M07 A3003 RMK A01 T00741073  RH  035%=      5-min Rain = 0
KSB1 211151Z 21011KT 07/M07 A3003 RMK A01 T00731073  RH  035%=      5-min Rain = 0
KSB1 211152Z 20010KT 07/M07 A3003 RMK A01 T00731073  RH  035%=      5-min Rain = 0
KSB1 211153Z 20012KT 07/M07 A3003 RMK A01 T00741073  RH  035%=      5-min Rain = 0
KSB1 211154Z 20011KT 07/M07 A3003 RMK A01 T00741073  RH  034%=      5-min Rain = 0
KSB1 211155Z 20011KT 07/M07 A3003 RMK A01 T00741073  RH  035%=      5-min Rain = 0
KSB1 211156Z 20011KT 07/M07 A3003 RMK A01 T00741072  RH  035%=      5-min Rain = 0
KSB1 211157Z 20011KT 07/M07 A3003 RMK A01 T00731072  RH  035%=      5-min Rain = 0
KSB1 211158Z 20011KT 07/M07 A3003 RMK A01 T00731072  RH  035%=      5-min Rain = 0
KSB1 211159Z 20011KT 07/M07 A3003 RMK A01 T00731072  RH  035%=      5-min Rain = 0
KSB1 211200Z 21011KT 07/M07 A3003 RMK A01 T00741072  RH  035%=      5-min Rain = 0
KSB1 211201Z 20012KT 07/M07 A3003 RMK A01 T00741072  RH  035%=      5-min Rain = 0
KSB1 211202Z 20011KT 08/M07 A3003 RMK A01 T00751072  RH  034%=      5-min Rain = 0
KSB1 211203Z 20012KT 08/M07 A3003 RMK A01 T00751072  RH  034%=      5-min Rain = 0
KSB1 211204Z 20012KT 08/M07 A3003 RMK A01 T00751072  RH  034%=      5-min Rain = 0
KSB1 211205Z 20011KT 08/M07 A3003 RMK A01 T00751072  RH  034%=      5-min Rain = 0
KSB1 211206Z 20011KT 08/M07 A3003 RMK A01 T00761072  RH  034%=      5-min Rain = 0
KSB1 211207Z 20011KT 08/M07 A3003 RMK A01 T00751072  RH  034%=      5-min Rain = 0
KSB1 211208Z 20011KT 07/M07 A3003 RMK A01 T00741072  RH  034%=      5-min Rain = 0
KSB1 211209Z 20010KT 07/M07 A3003 RMK A01 T00741072  RH  035%=      5-min Rain = 0
KSB1 211210Z 20010KT 07/M07 A3003 RMK A01 T00731072  RH  035%=      5-min Rain = 0
KSB1 211211Z 20011KT 07/M07 A3003 RMK A01 T00731072  RH  035%=      5-min Rain = 0
KSB1 211212Z 21011KT 07/M07 A3003 RMK A01 T00721072  RH  035%=      5-min Rain = 0
KSB1 211213Z 20011KT 07/M07 A3003 RMK A01 T00731072  RH  035%=      5-min Rain = 0
KSB1 211214Z 20011KT 07/M07 A3003 RMK A01 T00731072  RH  035%=      5-min Rain = 0
KSB1 211215Z 20012KT 07/M07 A3002 RMK A01 T00741071  RH  035%=      5-min Rain = 0
KSB1 211216Z 21012KT 08/M07 A3002 RMK A01 T00751071  RH  035%=      5-min Rain = 0
KSB1 211217Z 20013KT 08/M07 A3002 RMK A01 T00761071  RH  034%=      5-min Rain = 0
KSB1 211218Z 21012KT 08/M07 A3003 RMK A01 T00771071  RH  034%=      5-min Rain = 0
KSB1 211219Z 21011KT 08/M07 A3003 RMK A01 T00771072  RH  034%=      5-min Rain = 0
KSB1 211220Z 21011KT 08/M07 A3003 RMK A01 T00761072  RH  034%=      5-min Rain = 0
KSB1 211221Z 21010KT 08/M07 A3003 RMK A01 T00751071  RH  034%=      5-min Rain = 0
KSB1 211222Z 21009KT 07/M07 A3003 RMK A01 T00741071  RH  035%=      5-min Rain = 0
KSB1 211223Z 21011KT 07/M07 A3003 RMK A01 T00731072  RH  035%=      5-min Rain = 0
KSB1 211224Z 21011KT 07/M07 A3003 RMK A01 T00741071  RH  035%=      5-min Rain = 0
KSB1 211225Z 21011KT 07/M07 A3003 RMK A01 T00731071  RH  035%=      5-min Rain = 0
KSB1 211226Z 21011KT 07/M07 A3003 RMK A01 T00731071  RH  035%=      5-min Rain = 0
KSB1 211227Z 21012KT 07/M07 A3003 RMK A01 T00721071  RH  035%=      5-min Rain = 0
KSB1 211228Z 21011KT 07/M07 A3003 RMK A01 T00711071  RH  035%=      5-min Rain = 0
KSB1 211229Z 21013KT 07/M07 A3002 RMK A01 T00711071  RH  036%=      5-min Rain = 0
KSB1 211230Z 21012KT 07/M07 A3002 RMK A01 T00711071  RH  036%=      5-min Rain = 0
KSB1 211231Z 21013KT 07/M07 A3002 RMK A01 T00711071  RH  036%=      5-min Rain = 0
KSB1 211232Z 21013KT 07/M07 A3002 RMK A01 T00721071  RH  035%=      5-min Rain = 0
KSB1 211233Z 21012KT 07/M07 A3002 RMK A01 T00721071  RH  035%=      5-min Rain = 0
KSB1 211234Z 21012KT 07/M07 A3002 RMK A01 T00721072  RH  035%=      5-min Rain = 0
KSB1 211235Z 21013KT 07/M07 A3002 RMK A01 T00711072  RH  035%=      5-min Rain = 0
KSB1 211236Z 21012KT 07/M07 A3002 RMK A01 T00711071  RH  036%=      5-min Rain = 0
KSB1 211237Z 21012KT 07/M07 A3002 RMK A01 T00711071  RH  036%=      5-min Rain = 0
KSB1 211238Z 21012KT 07/M07 A3002 RMK A01 T00711071  RH  035%=      5-min Rain = 0
KSB1 211239Z 21012KT 07/M07 A3002 RMK A01 T00711071  RH  035%=      5-min Rain = 0
KSB1 211240Z 22012KT 07/M07 A3002 RMK A01 T00711072  RH  035%=      5-min Rain = 0
KSB1 211241Z 22013KT 07/M07 A3002 RMK A01 T00711072  RH  035%=      5-min Rain = 0
KSB1 211242Z 21012KT 07/M07 A3002 RMK A01 T00711071  RH  036%=      5-min Rain = 0
KSB1 211243Z 22011KT 07/M07 A3002 RMK A01 T00711071  RH  036%=      5-min Rain = 0
KSB1 211244Z 22012KT 07/M07 A3002 RMK A01 T00721071  RH  035%=      5-min Rain = 0
KSB1 211245Z 22012KT 07/M07 A3002 RMK A01 T00721071  RH  035%=      5-min Rain = 0
KSB1 211246Z 22012KT 07/M07 A3002 RMK A01 T00711071  RH  035%=      5-min Rain = 0
KSB1 211247Z 22011KT 07/M07 A3002 RMK A01 T00721071  RH  036%=      5-min Rain = 0
KSB1 211248Z 22012KT 07/M07 A3003 RMK A01 T00711071  RH  035%=      5-min Rain = 0
KSB1 211249Z 22011KT 07/M07 A3003 RMK A01 T00701071  RH  036%=      5-min Rain = 0
KSB1 211250Z 22011KT 07/M07 A3003 RMK A01 T00701071  RH  036%=      5-min Rain = 0
KSB1 211251Z 22011KT 07/M07 A3003 RMK A01 T00711071  RH  036%=      5-min Rain = 0
KSB1 211252Z 22011KT 07/M07 A3003 RMK A01 T00721071  RH  035%=      5-min Rain = 0
KSB1 211253Z 22011KT 07/M07 A3003 RMK A01 T00711072  RH  035%=      5-min Rain = 0
KSB1 211254Z 22011KT 07/M07 A3003 RMK A01 T00711071  RH  035%=      5-min Rain = 0
KSB1 211255Z 22011KT 07/M07 A3003 RMK A01 T00711071  RH  036%=      5-min Rain = 0
KSB1 211256Z 22011KT 07/M07 A3003 RMK A01 T00701072  RH  036%=      5-min Rain = 0
KSB1 211257Z 22010KT 07/M07 A3003 RMK A01 T00711071  RH  036%=      5-min Rain = 0
KSB1 211258Z 22011KT 07/M07 A3003 RMK A01 T00721072  RH  035%=      5-min Rain = 0
KSB1 211259Z 22011KT 07/M07 A3003 RMK A01 T00721072  RH  035%=      5-min Rain = 0
KSB1 211300Z 22011KT 07/M07 A3003 RMK A01 T00711071  RH  035%=      5-min Rain = 0
KSB1 211301Z 22011KT 07/M07 A3003 RMK A01 T00711072  RH  036%=      5-min Rain = 0
KSB1 211302Z 22011KT 07/M07 A3003 RMK A01 T00711071  RH  035%=      5-min Rain = 0
KSB1 211303Z 22011KT 07/M07 A3003 RMK A01 T00711071  RH  036%=      5-min Rain = 0
KSB1 211304Z 22010KT 07/M07 A3003 RMK A01 T00711071  RH  036%=      5-min Rain = 0
KSB1 211305Z 22009KT 07/M07 A3003 RMK A01 T00701072  RH  036%=      5-min Rain = 0
KSB1 211306Z 22010KT 07/M07 A3003 RMK A01 T00691073  RH  036%=      5-min Rain = 0
KSB1 211307Z 22010KT 07/M07 A3003 RMK A01 T00681073  RH  036%=      5-min Rain = 0
KSB1 211308Z 22009KT 07/M07 A3003 RMK A01 T00671073  RH  036%=      5-min Rain = 0
KSB1 211309Z 22009KT 07/M07 A3003 RMK A01 T00681072  RH  036%=      5-min Rain = 0
KSB1 211310Z 23010KT 07/M07 A3003 RMK A01 T00681072  RH  036%=      5-min Rain = 0
KSB1 211311Z 22010KT 07/M07 A3003 RMK A01 T00681072  RH  036%=      5-min Rain = 0
KSB1 211312Z 22010KT 07/M07 A3003 RMK A01 T00681072  RH  036%=      5-min Rain = 0
KSB1 211313Z 22010KT 07/M07 A3003 RMK A01 T00681072  RH  036%=      5-min Rain = 0
KSB1 211314Z 22010KT 07/M07 A3003 RMK A01 T00681072  RH  036%=      5-min Rain = 0
KSB1 211315Z 22009KT 07/M07 A3003 RMK A01 T00681072  RH  036%=      5-min Rain = 0
KSB1 211316Z 22009KT 07/M07 A3003 RMK A01 T00671072  RH  036%=      5-min Rain = 0
KSB1 211317Z 22011KT 07/M07 A3003 RMK A01 T00671072  RH  036%=      5-min Rain = 0
KSB1 211318Z 22011KT 07/M07 A3003 RMK A01 T00671072  RH  036%=      5-min Rain = 0
KSB1 211319Z 22011KT 07/M07 A3003 RMK A01 T00681071  RH  036%=      5-min Rain = 0
KSB1 211320Z 22011KT 07/M07 A3003 RMK A01 T00691072  RH  036%=      5-min Rain = 0
KSB1 211321Z 22010KT 07/M07 A3003 RMK A01 T00701071  RH  036%=      5-min Rain = 0
KSB1 211322Z 22010KT 07/M07 A3003 RMK A01 T00711072  RH  036%=      5-min Rain = 0
KSB1 211323Z 22009KT 07/M07 A3003 RMK A01 T00701072  RH  035%=      5-min Rain = 0
KSB1 211324Z 22010KT 07/M07 A3003 RMK A01 T00691072  RH  036%=      5-min Rain = 0
KSB1 211325Z 22009KT 07/M07 A3003 RMK A01 T00681072  RH  036%=      5-min Rain = 0
KSB1 211326Z 22010KT 07/M07 A3003 RMK A01 T00671072  RH  036%=      5-min Rain = 0
KSB1 211327Z 22010KT 07/M07 A3003 RMK A01 T00681072  RH  036%=      5-min Rain = 0
KSB1 211328Z 22010KT 07/M07 A3003 RMK A01 T00681072  RH  036%=      5-min Rain = 0
KSB1 211329Z 23009KT 07/M07 A3003 RMK A01 T00681072  RH  036%=      5-min Rain = 0
KSB1 211330Z 23010KT 07/M07 A3003 RMK A01 T00691072  RH  036%=      5-min Rain = 0
KSB1 211331Z 23009KT 07/M07 A3003 RMK A01 T00691072  RH  036%=      5-min Rain = 0
KSB1 211332Z 23009KT 07/M07 A3003 RMK A01 T00681072  RH  036%=      5-min Rain = 0
KSB1 211333Z 23009KT 07/M07 A3003 RMK A01 T00681072  RH  036%=      5-min Rain = 0
KSB1 211334Z 23010KT 07/M07 A3003 RMK A01 T00681072  RH  036%=      5-min Rain = 0
KSB1 211335Z 23008KT 07/M07 A3003 RMK A01 T00681072  RH  036%=      5-min Rain = 0
KSB1 211336Z 22008KT 07/M07 A3003 RMK A01 T00681072  RH  036%=      5-min Rain = 0
KSB1 211337Z 22008KT 07/M07 A3003 RMK A01 T00681072  RH  036%=      5-min Rain = 0
KSB1 211338Z 23009KT 07/M07 A3003 RMK A01 T00681072  RH  036%=      5-min Rain = 0
KSB1 211339Z 23009KT 07/M07 A3003 RMK A01 T00681072  RH  036%=      5-min Rain = 0
KSB1 211340Z 23010KT 07/M07 A3003 RMK A01 T00671072  RH  036%=      5-min Rain = 0
KSB1 211341Z 23009KT 07/M07 A3003 RMK A01 T00671072  RH  037%=      5-min Rain = 0
KSB1 211342Z 22009KT 07/M07 A3003 RMK A01 T00671072  RH  036%=      5-min Rain = 0
KSB1 211343Z 22008KT 07/M07 A3003 RMK A01 T00681071  RH  036%=      5-min Rain = 0
KSB1 211344Z 23007KT 07/M07 A3003 RMK A01 T00681072  RH  036%=      5-min Rain = 0
KSB1 211345Z 22006KT 07/M07 A3003 RMK A01 T00681071  RH  036%=      5-min Rain = 0
KSB1 211346Z 23009KT 07/M07 A3003 RMK A01 T00681072  RH  036%=      5-min Rain = 0
KSB1 211347Z 23008KT 07/M07 A3003 RMK A01 T00681072  RH  036%=      5-min Rain = 0
KSB1 211348Z 23009KT 07/M07 A3003 RMK A01 T00661072  RH  036%=      5-min Rain = 0
KSB1 211349Z 22009KT 07/M07 A3003 RMK A01 T00671072  RH  037%=      5-min Rain = 0
KSB1 211350Z 22009KT 07/M07 A3003 RMK A01 T00671071  RH  036%=      5-min Rain = 0
KSB1 211351Z 22009KT 07/M07 A3003 RMK A01 T00671071  RH  037%=      5-min Rain = 0
KSB1 211352Z 22009KT 07/M07 A3003 RMK A01 T00671071  RH  036%=      5-min Rain = 0
KSB1 211353Z 22008KT 07/M07 A3003 RMK A01 T00681071  RH  036%=      5-min Rain = 0
KSB1 211354Z 22010KT 07/M07 A3003 RMK A01 T00681071  RH  036%=      5-min Rain = 0
KSB1 211355Z 22010KT 07/M07 A3003 RMK A01 T00681071  RH  036%=      5-min Rain = 0
KSB1 211356Z 21010KT 07/M07 A3003 RMK A01 T00681071  RH  036%=      5-min Rain = 0
KSB1 211357Z 21008KT 07/M07 A3003 RMK A01 T00691071  RH  036%=      5-min Rain = 0
KSB1 211358Z 22008KT 07/M07 A3003 RMK A01 T00701071  RH  036%=      5-min Rain = 0
KSB1 211359Z 22009KT 07/M07 A3003 RMK A01 T00691072  RH  036%=      5-min Rain = 0
KSB1 211400Z 22010KT 07/M07 A3003 RMK A01 T00681072  RH  036%=      5-min Rain = 0
KSB1 211401Z 22010KT 07/M07 A3003 RMK A01 T00671072  RH  036%=      5-min Rain = 0
KSB1 211402Z 21010KT 07/M07 A3003 RMK A01 T00671072  RH  036%=      5-min Rain = 0
KSB1 211403Z 21010KT 07/M07 A3003 RMK A01 T00681071  RH  036%=      5-min Rain = 0
KSB1 211404Z 22009KT 07/M07 A3003 RMK A01 T00691071  RH  036%=      5-min Rain = 0
KSB1 211405Z 21009KT 07/M07 A3003 RMK A01 T00701071  RH  036%=      5-min Rain = 0
KSB1 211406Z 21009KT 07/M07 A3003 RMK A01 T00691072  RH  036%=      5-min Rain = 0
KSB1 211407Z 21009KT 07/M07 A3003 RMK A01 T00681072  RH  036%=      5-min Rain = 0
KSB1 211408Z 21009KT 07/M07 A3003 RMK A01 T00701071  RH  036%=      5-min Rain = 0
KSB1 211409Z 21011KT 07/M07 A3003 RMK A01 T00701072  RH  036%=      5-min Rain = 0
KSB1 211410Z 21009KT 07/M07 A3003 RMK A01 T00711072  RH  036%=      5-min Rain = 0
KSB1 211411Z 20009KT 07/M07 A3003 RMK A01 T00711071  RH  036%=      5-min Rain = 0
KSB1 211412Z 21009KT 07/M07 A3003 RMK A01 T00711072  RH  035%=      5-min Rain = 0
KSB1 211413Z 21008KT 07/M07 A3003 RMK A01 T00701072  RH  036%=      5-min Rain = 0
KSB1 211414Z 21008KT 07/M07 A3003 RMK A01 T00701072  RH  036%=      5-min Rain = 0
KSB1 211415Z 21007KT 07/M07 A3003 RMK A01 T00691071  RH  036%=      5-min Rain = 0
KSB1 211416Z 20006KT 07/M07 A3003 RMK A01 T00691071  RH  036%=      5-min Rain = 0
KSB1 211417Z 20005KT 07/M07 A3003 RMK A01 T00691071  RH  036%=      5-min Rain = 0
KSB1 211418Z 20004KT 07/M07 A3003 RMK A01 T00681071  RH  036%=      5-min Rain = 0
KSB1 211419Z 21004KT 07/M07 A3003 RMK A01 T00681072  RH  036%=      5-min Rain = 0
KSB1 211420Z 22004KT 07/M07 A3003 RMK A01 T00681071  RH  036%=      5-min Rain = 0
KSB1 211421Z 22006KT 07/M07 A3003 RMK A01 T00691071  RH  036%=      5-min Rain = 0
KSB1 211422Z 22006KT 07/M07 A3003 RMK A01 T00701071  RH  036%=      5-min Rain = 0
KSB1 211423Z 22006KT 07/M07 A3003 RMK A01 T00701071  RH  036%=      5-min Rain = 0
KSB1 211424Z 21007KT 07/M07 A3003 RMK A01 T00711071  RH  036%=      5-min Rain = 0
KSB1 211425Z 22006KT 07/M07 A3003 RMK A01 T00721071  RH  035%=      5-min Rain = 0
KSB1 211426Z 22006KT 07/M07 A3003 RMK A01 T00711071  RH  035%=      5-min Rain = 0
KSB1 211427Z 22006KT 07/M07 A3003 RMK A01 T00711071  RH  035%=      5-min Rain = 0
KSB1 211428Z 22007KT 07/M07 A3003 RMK A01 T00721071  RH  035%=      5-min Rain = 0
KSB1 211429Z 22006KT 07/M07 A3003 RMK A01 T00731071  RH  035%=      5-min Rain = 0
KSB1 211430Z 22006KT 07/M07 A3003 RMK A01 T00731071  RH  035%=      5-min Rain = 0
KSB1 211431Z 22006KT 07/M07 A3003 RMK A01 T00721072  RH  035%=      5-min Rain = 0
KSB1 211432Z 21005KT 07/M07 A3003 RMK A01 T00721071  RH  035%=      5-min Rain = 0
KSB1 211433Z 21005KT 07/M07 A3003 RMK A01 T00721071  RH  035%=      5-min Rain = 0
KSB1 211434Z 20005KT 07/M07 A3003 RMK A01 T00721071  RH  035%=      5-min Rain = 0
KSB1 211435Z 20005KT 07/M07 A3003 RMK A01 T00721071  RH  035%=      5-min Rain = 0
KSB1 211436Z 21004KT 07/M07 A3003 RMK A01 T00741071  RH  035%=      5-min Rain = 0
KSB1 211437Z 21005KT 08/M07 A3003 RMK A01 T00761070  RH  035%=      5-min Rain = 0
KSB1 211438Z 21005KT 08/M07 A3003 RMK A01 T00771070  RH  035%=      5-min Rain = 0
KSB1 211439Z 21005KT 08/M07 A3003 RMK A01 T00781069  RH  034%=      5-min Rain = 0
KSB1 211440Z 21005KT 08/M07 A3003 RMK A01 T00791069  RH  034%=      5-min Rain = 0
KSB1 211441Z 21005KT 08/M07 A3003 RMK A01 T00801069  RH  034%=      5-min Rain = 0
KSB1 211442Z 22005KT 08/M07 A3003 RMK A01 T00811068  RH  034%=      5-min Rain = 0
KSB1 211443Z 21005KT 08/M07 A3003 RMK A01 T00811068  RH  034%=      5-min Rain = 0
KSB1 211444Z 20005KT 08/M07 A3003 RMK A01 T00811068  RH  034%=      5-min Rain = 0
KSB1 211445Z 21004KT 08/M07 A3003 RMK A01 T00821068  RH  034%=      5-min Rain = 0
KSB1 211446Z 21005KT 08/M07 A3003 RMK A01 T00831068  RH  034%=      5-min Rain = 0
KSB1 211447Z 20007KT 08/M07 A3003 RMK A01 T00841068  RH  033%=      5-min Rain = 0
KSB1 211448Z 20007KT 09/M07 A3003 RMK A01 T00851068  RH  033%=      5-min Rain = 0
KSB1 211449Z 20005KT 09/M07 A3003 RMK A01 T00851068  RH  033%=      5-min Rain = 0
KSB1 211450Z 20006KT 09/M07 A3003 RMK A01 T00851068  RH  033%=      5-min Rain = 0
KSB1 211451Z 20005KT 09/M07 A3003 RMK A01 T00851068  RH  033%=      5-min Rain = 0
KSB1 211452Z 20005KT 09/M07 A3003 RMK A01 T00851069  RH  033%=      5-min Rain = 0
KSB1 211453Z 20006KT 09/M07 A3003 RMK A01 T00851069  RH  033%=      5-min Rain = 0
KSB1 211454Z 20006KT 09/M07 A3003 RMK A01 T00851069  RH  033%=      5-min Rain = 0
KSB1 211455Z 19006KT 08/M07 A3003 RMK A01 T00841068  RH  033%=      5-min Rain = 0
KSB1 211456Z 20008KT 08/M07 A3003 RMK A01 T00841068  RH  033%=      5-min Rain = 0
KSB1 211457Z 20007KT 08/M07 A3003 RMK A01 T00841068  RH  033%=      5-min Rain = 0
KSB1 211458Z 20007KT 09/M07 A3003 RMK A01 T00851068  RH  033%=      5-min Rain = 0
KSB1 211459Z 20007KT 09/M07 A3003 RMK A01 T00851068  RH  033%=      5-min Rain = 0
KSB1 211500Z 20007KT 09/M07 A3003 RMK A01 T00851068  RH  033%=      5-min Rain = 0
KSB1 211501Z 20007KT 09/M07 A3003 RMK A01 T00851068  RH  033%=      5-min Rain = 0
KSB1 211502Z 21007KT 09/M07 A3003 RMK A01 T00851068  RH  033%=      5-min Rain = 0
KSB1 211503Z 21007KT 09/M07 A3003 RMK A01 T00861067  RH  033%=      5-min Rain = 0
KSB1 211504Z 21007KT 09/M07 A3003 RMK A01 T00851067  RH  033%=      5-min Rain = 0
KSB1 211505Z 21007KT 09/M07 A3003 RMK A01 T00851068  RH  033%=      5-min Rain = 0
KSB1 211506Z 21007KT 09/M07 A3003 RMK A01 T00851068  RH  033%=      5-min Rain = 0
KSB1 211507Z 21006KT 09/M07 A3003 RMK A01 T00861068  RH  033%=      5-min Rain = 0
KSB1 211508Z 21006KT 09/M07 A3003 RMK A01 T00861067  RH  033%=      5-min Rain = 0
KSB1 211509Z 21006KT 09/M07 A3003 RMK A01 T00861067  RH  033%=      5-min Rain = 0
KSB1 211510Z 21005KT 09/M07 A3003 RMK A01 T00861068  RH  033%=      5-min Rain = 0
KSB1 211511Z 21006KT 09/M07 A3003 RMK A01 T00861068  RH  033%=      5-min Rain = 0
KSB1 211512Z 20007KT 09/M07 A3003 RMK A01 T00861068  RH  033%=      5-min Rain = 0
KSB1 211513Z 21006KT 09/M07 A3003 RMK A01 T00861068  RH  033%=      5-min Rain = 0
KSB1 211514Z 21007KT 09/M07 A3003 RMK A01 T00861067  RH  033%=      5-min Rain = 0
KSB1 211515Z 20007KT 09/M07 A3003 RMK A01 T00871068  RH  033%=      5-min Rain = 0
KSB1 211516Z 20006KT 09/M07 A3003 RMK A01 T00871067  RH  033%=      5-min Rain = 0
KSB1 211517Z 21006KT 09/M07 A3003 RMK A01 T00881067  RH  033%=      5-min Rain = 0
KSB1 211518Z 20005KT 09/M07 A3003 RMK A01 T00881067  RH  033%=      5-min Rain = 0
KSB1 211519Z 19005KT 09/M07 A3003 RMK A01 T00881066  RH  033%=      5-min Rain = 0
KSB1 211520Z 20005KT 09/M07 A3003 RMK A01 T00881067  RH  033%=      5-min Rain = 0
KSB1 211521Z 19005KT 09/M07 A3003 RMK A01 T00891067  RH  033%=      5-min Rain = 0
KSB1 211522Z 20004KT 09/M07 A3003 RMK A01 T00891067  RH  033%=      5-min Rain = 0
KSB1 211523Z 19004KT 09/M07 A3003 RMK A01 T00901066  RH  033%=      5-min Rain = 0
KSB1 211524Z 19003KT 09/M07 A3003 RMK A01 T00911066  RH  032%=      5-min Rain = 0
KSB1 211525Z 19003KT 09/M06 A3003 RMK A01 T00921064  RH  033%=      5-min Rain = 0
KSB1 211526Z 20006KT 09/M07 A3003 RMK A01 T00931065  RH  032%=      5-min Rain = 0
KSB1 211527Z 19004KT 09/M07 A3003 RMK A01 T00941065  RH  032%=      5-min Rain = 0
KSB1 211528Z 19004KT 10/M06 A3003 RMK A01 T00951064  RH  032%=      5-min Rain = 0
KSB1 211529Z 20005KT 10/M06 A3003 RMK A01 T00971063  RH  032%=      5-min Rain = 0
KSB1 211530Z 19006KT 10/M06 A3003 RMK A01 T01001063  RH  031%=      5-min Rain = 0
KSB1 211531Z 19006KT 10/M06 A3003 RMK A01 T01011064  RH  031%=      5-min Rain = 0
KSB1 211532Z 19005KT 10/M07 A3003 RMK A01 T01011065  RH  030%=      5-min Rain = 0
KSB1 211533Z 20006KT 10/M07 A3003 RMK A01 T01011065  RH  030%=      5-min Rain = 0
KSB1 211534Z 19006KT 10/M06 A3003 RMK A01 T01031064  RH  030%=      5-min Rain = 0
KSB1 211535Z 19007KT 10/M06 A3003 RMK A01 T01041064  RH  030%=      5-min Rain = 0
KSB1 211536Z 20008KT 11/M06 A3003 RMK A01 T01061064  RH  030%=      5-min Rain = 0
KSB1 211537Z 20006KT 11/M07 A3003 RMK A01 T01061065  RH  030%=      5-min Rain = 0
KSB1 211538Z 21006KT 11/M06 A3003 RMK A01 T01061064  RH  030%=      5-min Rain = 0
KSB1 211539Z 21006KT 11/M06 A3003 RMK A01 T01061064  RH  030%=      5-min Rain = 0
KSB1 211540Z 20007KT 11/M06 A3003 RMK A01 T01081063  RH  030%=      5-min Rain = 0
KSB1 211541Z 21007KT 11/M06 A3003 RMK A01 T01091064  RH  029%=      5-min Rain = 0
KSB1 211542Z 20008KT 11/M06 A3003 RMK A01 T01081064  RH  029%=      5-min Rain = 0
KSB1 211543Z 20009KT 11/M07 A3003 RMK A01 T01071065  RH  029%=      5-min Rain = 0
KSB1 211544Z 21008KT 11/M07 A3003 RMK A01 T01061066  RH  029%=      5-min Rain = 0
KSB1 211545Z 21008KT 11/M07 A3003 RMK A01 T01061065  RH  029%=      5-min Rain = 0
KSB1 211546Z 20008KT 11/M07 A3003 RMK A01 T01061065  RH  029%=      5-min Rain = 0
KSB1 211547Z 20006KT 11/M06 A3003 RMK A01 T01071064  RH  029%=      5-min Rain = 0
KSB1 211548Z 20006KT 11/M06 A3003 RMK A01 T01081063  RH  029%=      5-min Rain = 0
KSB1 211549Z 21007KT 11/M06 A3003 RMK A01 T01101063  RH  029%=      5-min Rain = 0
KSB1 211550Z 21007KT 11/M06 A3003 RMK A01 T01111063  RH  029%=      5-min Rain = 0
KSB1 211551Z 20006KT 11/M06 A3003 RMK A01 T01101064  RH  029%=      5-min Rain = 0
KSB1 211552Z 21006KT 11/M06 A3003 RMK A01 T01121061  RH  029%=      5-min Rain = 0
KSB1 211553Z 21008KT 11/M06 A3003 RMK A01 T01131062  RH  029%=      5-min Rain = 0
KSB1 211554Z 21007KT 11/M06 A3003 RMK A01 T01131063  RH  029%=      5-min Rain = 0
KSB1 211555Z 20007KT 12/M06 A3003 RMK A01 T01151062  RH  029%=      5-min Rain = 0
KSB1 211556Z 20008KT 12/M06 A3003 RMK A01 T01171059  RH  029%=      5-min Rain = 0
KSB1 211557Z 20008KT 12/M06 A3003 RMK A01 T01191061  RH  028%=      5-min Rain = 0
KSB1 211558Z 20010KT 12/M06 A3003 RMK A01 T01191062  RH  028%=      5-min Rain = 0
KSB1 211559Z 19012KT 12/M06 A3003 RMK A01 T01191062  RH  028%=      5-min Rain = 0
KSB1 211600Z 20011KT 12/M06 A3003 RMK A01 T01191062  RH  028%=      5-min Rain = 0
KSB1 211601Z 20012KT 12/M06 A3003 RMK A01 T01191063  RH  027%=      5-min Rain = 0
KSB1 211602Z 20012KT 12/M06 A3003 RMK A01 T01201062  RH  027%=      5-min Rain = 0
KSB1 211603Z 21012KT 12/M06 A3002 RMK A01 T01201063  RH  027%=      5-min Rain = 0
KSB1 211604Z 21013KT 12/M06 A3002 RMK A01 T01181064  RH  027%=      5-min Rain = 0
KSB1 211605Z 20010KT 12/M07 A3002 RMK A01 T01151065  RH  028%=      5-min Rain = 0
KSB1 211606Z 20010KT 12/M06 A3002 RMK A01 T01151063  RH  028%=      5-min Rain = 0
KSB1 211607Z 20010KT 12/M06 A3002 RMK A01 T01151063  RH  028%=      5-min Rain = 0
KSB1 211608Z 20010KT 12/M06 A3002 RMK A01 T01171062  RH  028%=      5-min Rain = 0
KSB1 211609Z 21010KT 12/M06 A3002 RMK A01 T01171063  RH  028%=      5-min Rain = 0
KSB1 211610Z 20012KT 12/M06 A3002 RMK A01 T01161064  RH  028%=      5-min Rain = 0
KSB1 211611Z 21011KT 12/M07 A3002 RMK A01 T01151065  RH  028%=      5-min Rain = 0
KSB1 211612Z 21010KT 11/M06 A3002 RMK A01 T01141064  RH  028%=      5-min Rain = 0
KSB1 211613Z 20011KT 11/M06 A3002 RMK A01 T01141064  RH  028%=      5-min Rain = 0
KSB1 211614Z 21012KT 11/M06 A3002 RMK A01 T01141064  RH  028%=      5-min Rain = 0
KSB1 211615Z 21012KT 11/M06 A3002 RMK A01 T01141064  RH  028%=      5-min Rain = 0
KSB1 211616Z 21012KT 11/M06 A3002 RMK A01 T01141064  RH  028%=      5-min Rain = 0
KSB1 211617Z 21011KT 11/M06 A3003 RMK A01 T01131064  RH  028%=      5-min Rain = 0
KSB1 211618Z 21011KT 11/M06 A3003 RMK A01 T01131063  RH  029%=      5-min Rain = 0
KSB1 211619Z 21010KT 11/M06 A3003 RMK A01 T01141063  RH  029%=      5-min Rain = 0
KSB1 211620Z 21010KT 12/M06 A3003 RMK A01 T01151062  RH  029%=      5-min Rain = 0
KSB1 211621Z 21010KT 12/M06 A3003 RMK A01 T01151062  RH  028%=      5-min Rain = 0
KSB1 211622Z 21010KT 11/M06 A3003 RMK A01 T01141062  RH  028%=      5-min Rain = 0
KSB1 211623Z 22011KT 11/M06 A3003 RMK A01 T01141062  RH  029%=      5-min Rain = 0
KSB1 211624Z 21011KT 11/M06 A3003 RMK A01 T01141061  RH  029%=      5-min Rain = 0
KSB1 211625Z 22011KT 11/M06 A3003 RMK A01 T01141062  RH  029%=      5-min Rain = 0
KSB1 211626Z 22011KT 11/M06 A3003 RMK A01 T01141062  RH  029%=      5-min Rain = 0
KSB1 211627Z 22012KT 12/M06 A3003 RMK A01 T01151062  RH  028%=      5-min Rain = 0
KSB1 211628Z 22011KT 12/M06 A3003 RMK A01 T01151062  RH  028%=      5-min Rain = 0
KSB1 211629Z 21010KT 12/M06 A3003 RMK A01 T01161060  RH  028%=      5-min Rain = 0
KSB1 211630Z 21011KT 12/M06 A3003 RMK A01 T01181060  RH  028%=      5-min Rain = 0
KSB1 211631Z 21009KT 12/M06 A3003 RMK A01 T01181061  RH  028%=      5-min Rain = 0
KSB1 211632Z 21010KT 12/M06 A3003 RMK A01 T01181060  RH  028%=      5-min Rain = 0
KSB1 211633Z 21012KT 12/M06 A3003 RMK A01 T01191060  RH  028%=      5-min Rain = 0
KSB1 211634Z 21012KT 12/M06 A3003 RMK A01 T01191062  RH  028%=      5-min Rain = 0
KSB1 211635Z 22012KT 12/M06 A3003 RMK A01 T01181061  RH  028%=      5-min Rain = 0
KSB1 211636Z 22011KT 12/M06 A3003 RMK A01 T01181060  RH  028%=      5-min Rain = 0
KSB1 211637Z 21012KT 12/M06 A3003 RMK A01 T01191060  RH  028%=      5-min Rain = 0
KSB1 211638Z 21011KT 12/M06 A3003 RMK A01 T01191061  RH  028%=      5-min Rain = 0
KSB1 211639Z 22010KT 12/M06 A3003 RMK A01 T01191061  RH  028%=      5-min Rain = 0
KSB1 211640Z 21010KT 12/M06 A3003 RMK A01 T01201060  RH  028%=      5-min Rain = 0
KSB1 211641Z 21009KT 12/M06 A3003 RMK A01 T01211059  RH  028%=      5-min Rain = 0
KSB1 211642Z 21010KT 12/M06 A3003 RMK A01 T01221059  RH  028%=      5-min Rain = 0
KSB1 211643Z 21010KT 12/M06 A3003 RMK A01 T01231060  RH  027%=      5-min Rain = 0
KSB1 211644Z 21011KT 12/M06 A3003 RMK A01 T01241060  RH  027%=      5-min Rain = 0
KSB1 211645Z 21013KT 13/M06 A3003 RMK A01 T01251059  RH  027%=      5-min Rain = 0
KSB1 211646Z 21012KT 13/M06 A3003 RMK A01 T01261061  RH  027%=      5-min Rain = 0
KSB1 211647Z 21012KT 13/M06 A3003 RMK A01 T01271061  RH  027%=      5-min Rain = 0
KSB1 211648Z 21011KT 13/M06 A3003 RMK A01 T01271060  RH  027%=      5-min Rain = 0
KSB1 211649Z 21011KT 13/M06 A3003 RMK A01 T01271060  RH  027%=      5-min Rain = 0
KSB1 211650Z 21009KT 13/M06 A3003 RMK A01 T01281059  RH  027%=      5-min Rain = 0
KSB1 211651Z 22009KT 13/M06 A3003 RMK A01 T01301058  RH  027%=      5-min Rain = 0
KSB1 211652Z 20011KT 13/M06 A3003 RMK A01 T01331057  RH  026%=      5-min Rain = 0
KSB1 211653Z 20012KT 13/M06 A3003 RMK A01 T01341059  RH  026%=      5-min Rain = 0
KSB1 211654Z 20011KT 13/M06 A3003 RMK A01 T01341060  RH  025%=      5-min Rain = 0
KSB1 211655Z 21010KT 13/M06 A3002 RMK A01 T01321061  RH  026%=      5-min Rain = 0
KSB1 211656Z 19011KT 13/M06 A3002 RMK A01 T01321060  RH  026%=      5-min Rain = 0
KSB1 211657Z 20009KT 13/M06 A3002 RMK A01 T01321060  RH  026%=      5-min Rain = 0
KSB1 211658Z 20010KT 13/M06 A3002 RMK A01 T01341058  RH  026%=      5-min Rain = 0
KSB1 211659Z 20011KT 14/M06 A3002 RMK A01 T01351059  RH  026%=      5-min Rain = 0
KSB1 211700Z 20011KT 14/M06 A3002 RMK A01 T01351059  RH  025%=      5-min Rain = 0
KSB1 211701Z 21012KT 14/M06 A3002 RMK A01 T01351060  RH  025%=      5-min Rain = 0
KSB1 211702Z 20010KT 13/M06 A3002 RMK A01 T01341060  RH  025%=      5-min Rain = 0
KSB1 211703Z 21009KT 13/M06 A3002 RMK A01 T01341060  RH  025%=      5-min Rain = 0
KSB1 211704Z 20010KT 14/M06 A3002 RMK A01 T01361059  RH  025%=      5-min Rain = 0
KSB1 211705Z 19010KT 14/M06 A3002 RMK A01 T01371060  RH  025%=      5-min Rain = 0
KSB1 211706Z 20010KT 14/M06 A3002 RMK A01 T01381060  RH  025%=      5-min Rain = 0
KSB1 211707Z 20010KT 14/M06 A3002 RMK A01 T01381059  RH  025%=      5-min Rain = 0
KSB1 211708Z 19009KT 14/M06 A3002 RMK A01 T01391060  RH  025%=      5-min Rain = 0
KSB1 211709Z 19010KT 14/M06 A3002 RMK A01 T01381061  RH  025%=      5-min Rain = 0
KSB1 211710Z 20010KT 14/M06 A3002 RMK A01 T01391060  RH  025%=      5-min Rain = 0
KSB1 211711Z 19009KT 14/M06 A3002 RMK A01 T01401058  RH  025%=      5-min Rain = 0
KSB1 211712Z 20009KT 14/M06 A3002 RMK A01 T01411059  RH  025%=      5-min Rain = 0
KSB1 211713Z 21011KT 14/M06 A3002 RMK A01 T01421059  RH  024%=      5-min Rain = 0
KSB1 211714Z 21010KT 14/M06 A3002 RMK A01 T01421060  RH  024%=      5-min Rain = 0
KSB1 211715Z 20011KT 14/M06 A3002 RMK A01 T01421060  RH  024%=      5-min Rain = 0
KSB1 211716Z 20011KT 14/M06 A3002 RMK A01 T01411061  RH  024%=      5-min Rain = 0
KSB1 211717Z 21010KT 14/M06 A3002 RMK A01 T01401060  RH  024%=      5-min Rain = 0
KSB1 211718Z 21009KT 14/M06 A3002 RMK A01 T01421058  RH  025%=      5-min Rain = 0
KSB1 211719Z 21010KT 14/M06 A3002 RMK A01 T01431057  RH  025%=      5-min Rain = 0
KSB1 211720Z 20009KT 15/M06 A3002 RMK A01 T01451057  RH  024%=      5-min Rain = 0
KSB1 211721Z 21009KT 15/M06 A3002 RMK A01 T01451058  RH  024%=      5-min Rain = 0
KSB1 211722Z 21010KT 15/M06 A3002 RMK A01 T01451058  RH  024%=      5-min Rain = 0
KSB1 211723Z 21009KT 15/M06 A3002 RMK A01 T01461059  RH  024%=      5-min Rain = 0
KSB1 211724Z 20009KT 15/M06 A3002 RMK A01 T01451059  RH  024%=      5-min Rain = 0
KSB1 211725Z 19010KT 15/M06 A3002 RMK A01 T01461058  RH  024%=      5-min Rain = 0
KSB1 211726Z 19010KT 15/M06 A3002 RMK A01 T01471057  RH  024%=      5-min Rain = 0
KSB1 211727Z 20010KT 15/M06 A3002 RMK A01 T01491056  RH  024%=      5-min Rain = 0
KSB1 211728Z 20010KT 15/M06 A3002 RMK A01 T01501057  RH  024%=      5-min Rain = 0
KSB1 211729Z 20010KT 15/M06 A3002 RMK A01 T01511057  RH  023%=      5-min Rain = 0
KSB1 211730Z 19010KT 15/M06 A3001 RMK A01 T01521058  RH  023%=      5-min Rain = 0
KSB1 211731Z 20010KT 15/M06 A3001 RMK A01 T01541056  RH  023%=      5-min Rain = 0
KSB1 211732Z 19009KT 16/M06 A3002 RMK A01 T01551058  RH  023%=      5-min Rain = 0
KSB1 211733Z 18010KT 16/M06 A3001 RMK A01 T01561056  RH  023%=      5-min Rain = 0
KSB1 211734Z 21009KT 16/M06 A3001 RMK A01 T01561057  RH  023%=      5-min Rain = 0
KSB1 211735Z 21009KT 16/M06 A3001 RMK A01 T01571057  RH  023%=      5-min Rain = 0
KSB1 211736Z 20009KT 16/M06 A3001 RMK A01 T01601056  RH  022%=      5-min Rain = 0
KSB1 211737Z 20009KT 16/M06 A3001 RMK A01 T01601056  RH  022%=      5-min Rain = 0
KSB1 211738Z 20010KT 16/M06 A3001 RMK A01 T01591059  RH  022%=      5-min Rain = 0
KSB1 211739Z 21008KT 16/M06 A3001 RMK A01 T01571059  RH  022%=      5-min Rain = 0
KSB1 211740Z 20012KT 16/M06 A3001 RMK A01 T01561057  RH  022%=      5-min Rain = 0
KSB1 211741Z 19010KT 16/M06 A3001 RMK A01 T01571060  RH  022%=      5-min Rain = 0
KSB1 211742Z 20007KT 15/M06 A3001 RMK A01 T01541060  RH  022%=      5-min Rain = 0
KSB1 211743Z 20009KT 16/M06 A3001 RMK A01 T01561057  RH  023%=      5-min Rain = 0
KSB1 211744Z 20011KT 16/M06 A3001 RMK A01 T01571059  RH  022%=      5-min Rain = 0
KSB1 211745Z 20011KT 16/M06 A3001 RMK A01 T01581061  RH  022%=      5-min Rain = 0
KSB1 211746Z 20010KT 16/M06 A3001 RMK A01 T01571060  RH  022%=      5-min Rain = 0
KSB1 211747Z 20011KT 16/M06 A3001 RMK A01 T01611056  RH  022%=      5-min Rain = 0
KSB1 211748Z 20010KT 16/M06 A3001 RMK A01 T01641056  RH  022%=      5-min Rain = 0
KSB1 211749Z 21014KT 17/M06 A3001 RMK A01 T01651056  RH  021%=      5-min Rain = 0
KSB1 211750Z 21012KT 17/M06 A3001 RMK A01 T01651056  RH  021%=      5-min Rain = 0
KSB1 211751Z 19011KT 17/M06 A30 RMK A01 T01661056  RH  021%=      5-min Rain = 0
KSB1 211752Z 18012KT 17/M06 A30 RMK A01 T01671057  RH  021%=      5-min Rain = 0
KSB1 211753Z 19014KT 17/M06 A30 RMK A01 T01671059  RH  021%=      5-min Rain = 0
KSB1 211754Z 19013KT 17/M06 A30 RMK A01 T01671059  RH  021%=      5-min Rain = 0
KSB1 211755Z 19012KT 17/M06 A30 RMK A01 T01671060  RH  021%=      5-min Rain = 0
KSB1 211756Z 19013KT 17/M06 A30 RMK A01 T01691059  RH  021%=      5-min Rain = 0
KSB1 211757Z 20011KT 17/M06 A30 RMK A01 T01701058  RH  020%=      5-min Rain = 0
KSB1 211758Z 20013KT 17/M06 A30 RMK A01 T01711059  RH  020%=      5-min Rain = 0
KSB1 211759Z 21012KT 17/M06 A30 RMK A01 T01731059  RH  020%=      5-min Rain = 0
KSB1 211800Z 20011KT 17/M06 A30 RMK A01 T01731058  RH  020%=      5-min Rain = 0
KSB1 211801Z 19012KT 18/M06 A30 RMK A01 T01751059  RH  020%=      5-min Rain = 0
KSB1 211802Z 18012KT 17/M06 A30 RMK A01 T01741061  RH  020%=      5-min Rain = 0
KSB1 211803Z 20012KT 17/M06 A30 RMK A01 T01741059  RH  020%=      5-min Rain = 0
KSB1 211804Z 20012KT 17/M06 A30 RMK A01 T01741061  RH  020%=      5-min Rain = 0
KSB1 211805Z 20010KT 18/M06 A30 RMK A01 T01751058  RH  020%=      5-min Rain = 0
KSB1 211806Z 19009KT 18/M06 A30 RMK A01 T01761060  RH  019%=      5-min Rain = 0
KSB1 211807Z 19011KT 18/M06 A30 RMK A01 T01761059  RH  020%=      5-min Rain = 0
KSB1 211808Z 19013KT 18/M06 A30 RMK A01 T01761059  RH  020%=      5-min Rain = 0
KSB1 211809Z 20012KT 18/M06 A30 RMK A01 T01751061  RH  019%=      5-min Rain = 0
KSB1 211810Z 20011KT 17/M06 A30 RMK A01 T01731061  RH  020%=      5-min Rain = 0
KSB1 211811Z 20010KT 17/M06 A30 RMK A01 T01741060  RH  020%=      5-min Rain = 0
KSB1 211812Z 19011KT 18/M06 A30 RMK A01 T01781057  RH  020%=      5-min Rain = 0
KSB1 211813Z 19010KT 18/M06 A30 RMK A01 T01801057  RH  019%=      5-min Rain = 0
KSB1 211814Z 19011KT 18/M06 A30 RMK A01 T01811059  RH  019%=      5-min Rain = 0
KSB1 211815Z 19011KT 18/M06 A30 RMK A01 T01811063  RH  018%=      5-min Rain = 0
KSB1 211816Z 20008KT 18/M06 A30 RMK A01 T01791064  RH  019%=      5-min Rain = 0
KSB1 211817Z 17009KT 18/M06 A30 RMK A01 T01791057  RH  019%=      5-min Rain = 0
KSB1 211818Z 17010KT 18/M05 A2999 RMK A01 T01801054  RH  020%=      5-min Rain = 0
KSB1 211819Z 17009KT 18/M06 A30 RMK A01 T01801055  RH  020%=      5-min Rain = 0
KSB1 211820Z 19009KT 18/M06 A2999 RMK A01 T01771057  RH  020%=      5-min Rain = 0
KSB1 211821Z 18007KT 18/M06 A2999 RMK A01 T01751061  RH  019%=      5-min Rain = 0
KSB1 211822Z 17008KT 18/M06 A2999 RMK A01 T01751057  RH  020%=      5-min Rain = 0
KSB1 211823Z 17009KT 18/M06 A2999 RMK A01 T01761055  RH  020%=      5-min Rain = 0
KSB1 211824Z 16010KT 18/M06 A2999 RMK A01 T01751057  RH  020%=      5-min Rain = 0
KSB1 211825Z 15010KT 18/M06 A2999 RMK A01 T01751057  RH  020%=      5-min Rain = 0
KSB1 211826Z 16010KT 18/M05 A2999 RMK A01 T01771054  RH  020%=      5-min Rain = 0
KSB1 211827Z 16010KT 18/M06 A2998 RMK A01 T01761056  RH  020%=      5-min Rain = 0
KSB1 211828Z 15012KT 18/M06 A2998 RMK A01 T01761055  RH  020%=      5-min Rain = 0
KSB1 211829Z 15011KT 18/M05 A2998 RMK A01 T01761054  RH  020%=      5-min Rain = 0
KSB1 211830Z 15011KT 18/M05 A2998 RMK A01 T01781054  RH  020%=      5-min Rain = 0
KSB1 211831Z 15011KT 18/M06 A2998 RMK A01 T01781055  RH  020%=      5-min Rain = 0
KSB1 211832Z 16013KT 18/M05 A2998 RMK A01 T01791054  RH  020%=      5-min Rain = 0
KSB1 211833Z 16011KT 18/M06 A2998 RMK A01 T01791056  RH  020%=      5-min Rain = 0
KSB1 211834Z 17012KT 18/M05 A2998 RMK A01 T01781054  RH  020%=      5-min Rain = 0
KSB1 211835Z 17011KT 18/M06 A2998 RMK A01 T01781056  RH  020%=      5-min Rain = 0
KSB1 211836Z 16011KT 18/M06 A2998 RMK A01 T01781056  RH  020%=      5-min Rain = 0
KSB1 211837Z 15012KT 18/M06 A2997 RMK A01 T01781055  RH  020%=      5-min Rain = 0
KSB1 211838Z 16011KT 18/M06 A2997 RMK A01 T01791056  RH  020%=      5-min Rain = 0
KSB1 211839Z 15011KT 18/M06 A2997 RMK A01 T01791056  RH  020%=      5-min Rain = 0
KSB1 211840Z 15012KT 18/M05 A2997 RMK A01 T01821053  RH  020%=      5-min Rain = 0
KSB1 211841Z 16013KT 18/M05 A2997 RMK A01 T01841053  RH  019%=      5-min Rain = 0
KSB1 211842Z 17012KT 19/M05 A2997 RMK A01 T01861054  RH  019%=      5-min Rain = 0
KSB1 211843Z 17010KT 19/M06 A2997 RMK A01 T01861055  RH  019%=      5-min Rain = 0
KSB1 211844Z 16009KT 19/M05 A2997 RMK A01 T01861054  RH  019%=      5-min Rain = 0
KSB1 211845Z 19010KT 19/M05 A2997 RMK A01 T01881054  RH  019%=      5-min Rain = 0
KSB1 211846Z 19012KT 19/M06 A2997 RMK A01 T01901060  RH  018%=      5-min Rain = 0
KSB1 211847Z 19010KT 19/M06 A2997 RMK A01 T01931061  RH  017%=      5-min Rain = 0
KSB1 211848Z 19012KT 20/M06 A2997 RMK A01 T01951061  RH  017%=      5-min Rain = 0
KSB1 211849Z 18013KT 20/M06 A2996 RMK A01 T01951063  RH  017%=      5-min Rain = 0
KSB1 211850Z 19014KT 20/M06 A2996 RMK A01 T01951064  RH  017%=      5-min Rain = 0
KSB1 211851Z 19012KT 19/M07 A2997 RMK A01 T01941065  RH  017%=      5-min Rain = 0
KSB1 211852Z 20009KT 19/M06 A2997 RMK A01 T01921064  RH  017%=      5-min Rain = 0
KSB1 211853Z 20011KT 20/M06 A2996 RMK A01 T01951060  RH  017%=      5-min Rain = 0
KSB1 211854Z 19008KT 20/M06 A2996 RMK A01 T01971061  RH  017%=      5-min Rain = 0
KSB1 211855Z 21008KT 20/M06 A2996 RMK A01 T01991060  RH  017%=      5-min Rain = 0
KSB1 211856Z 21012KT 20/M06 A2996 RMK A01 T02001062  RH  017%=      5-min Rain = 0
KSB1 211857Z 22011KT 20/M06 A2996 RMK A01 T01991064  RH  016%=      5-min Rain = 0
KSB1 211858Z 19014KT 20/M06 A2996 RMK A01 T01991063  RH  016%=      5-min Rain = 0
KSB1 211859Z 20013KT 20/M07 A2996 RMK A01 T01991065  RH  016%=      5-min Rain = 0
KSB1 211900Z 20013KT 20/M06 A2996 RMK A01 T01991064  RH  016%=      5-min Rain = 0
KSB1 211901Z 21012KT 20/M06 A2996 RMK A01 T02011064  RH  016%=      5-min Rain = 0
KSB1 211902Z 21014KT 20/M07 A2995 RMK A01 T02021068  RH  015%=      5-min Rain = 0
KSB1 211903Z 21019KT 20/M07 A2995 RMK A01 T02041071  RH  015%=      5-min Rain = 0
KSB1 211904Z 21018KT 21/M08 A2995 RMK A01 T02051076  RH  014%=      5-min Rain = 0
KSB1 211905Z 22013G18KT 21/M08 A2995 RMK A01 T02051078  RH  014%=      5-min Rain = 0
KSB1 211906Z 22015G20KT 21/M08 A2995 RMK A01 T02061075  RH  014%=      5-min Rain = 0
KSB1 211907Z 22019KT 21/M08 A2995 RMK A01 T02081078  RH  014%=      5-min Rain = 0
KSB1 211908Z 20016KT 21/M08 A2994 RMK A01 T02071079  RH  014%=      5-min Rain = 0
KSB1 211909Z 21012G17KT 21/M08 A2995 RMK A01 T02071077  RH  014%=      5-min Rain = 0
KSB1 211910Z 22015G20KT 21/M08 A2994 RMK A01 T02091076  RH  014%=      5-min Rain = 0
KSB1 211911Z 23013KT 21/M08 A2994 RMK A01 T02101076  RH  014%=      5-min Rain = 0
KSB1 211912Z 21014G21KT 21/M08 A2994 RMK A01 T02111076  RH  014%=      5-min Rain = 0
KSB1 211913Z 22018KT 21/M08 A2994 RMK A01 T02111078  RH  014%=      5-min Rain = 0
KSB1 211914Z 22016G22KT 21/M08 A2994 RMK A01 T02091078  RH  014%=      5-min Rain = 0
KSB1 211915Z 22015KT 21/M08 A2994 RMK A01 T02081078  RH  014%=      5-min Rain = 0
KSB1 211916Z 21019KT 21/M08 A2994 RMK A01 T02091076  RH  014%=      5-min Rain = 0
KSB1 211917Z 21019G24KT 21/M08 A2993 RMK A01 T02081078  RH  014%=      5-min Rain = 0
KSB1 211918Z 22016KT 21/M08 A2993 RMK A01 T02071078  RH  014%=      5-min Rain = 0
KSB1 211919Z 21018G25KT 21/M08 A2993 RMK A01 T02081077  RH  014%=      5-min Rain = 0
KSB1 211920Z 23019G24KT 21/M08 A2993 RMK A01 T02111078  RH  014%=      5-min Rain = 0
KSB1 211921Z 22021G27KT 21/M08 A2993 RMK A01 T02131081  RH  013%=      5-min Rain = 0
KSB1 211922Z 22024KT 21/M08 A2992 RMK A01 T02141082  RH  013%=      5-min Rain = 0
KSB1 211923Z 22021G27KT 21/M08 A2992 RMK A01 T02121084  RH  013%=      5-min Rain = 0
KSB1 211924Z 23020KT 22/M08 A2992 RMK A01 T02151080  RH  013%=      5-min Rain = 0
KSB1 211925Z 22023G28KT 22/M08 A2992 RMK A01 T02171080  RH  013%=      5-min Rain = 0
KSB1 211926Z 22020KT 22/M08 A2992 RMK A01 T02171082  RH  013%=      5-min Rain = 0
KSB1 211927Z 22020KT 22/M08 A2992 RMK A01 T02171082  RH  013%=      5-min Rain = 0
KSB1 211928Z 24022G29KT 22/M08 A2992 RMK A01 T02181082  RH  013%=      5-min Rain = 0
KSB1 211929Z 24022KT 22/M08 A2992 RMK A01 T02181084  RH  012%=      5-min Rain = 0
KSB1 211930Z 24025KT 22/M08 A2992 RMK A01 T02181084  RH  012%=      5-min Rain = 0
KSB1 211931Z 24024G29KT 22/M09 A2992 RMK A01 T02171085  RH  012%=      5-min Rain = 0
KSB1 211932Z 23021KT 22/M09 A2992 RMK A01 T02171085  RH  012%=      5-min Rain = 0
KSB1 211933Z 23025KT 22/M08 A2991 RMK A01 T02181083  RH  013%=      5-min Rain = 0
KSB1 211934Z 23026G32KT 22/M08 A2991 RMK A01 T02201083  RH  012%=      5-min Rain = 0
KSB1 211935Z 23022KT 22/M08 A2992 RMK A01 T02191083  RH  012%=      5-min Rain = 0
KSB1 211936Z 24019G28KT 22/M08 A2992 RMK A01 T02191081  RH  013%=      5-min Rain = 0
KSB1 211937Z 23026KT 22/M08 A2991 RMK A01 T02211081  RH  013%=      5-min Rain = 0
KSB1 211938Z 23023G28KT 22/M08 A2991 RMK A01 T02191084  RH  012%=      5-min Rain = 0
KSB1 211939Z 23028KT 22/M08 A2991 RMK A01 T02171084  RH  013%=      5-min Rain = 0
KSB1 211940Z 23021G27KT 22/M08 A2991 RMK A01 T02161083  RH  013%=      5-min Rain = 0
KSB1 211941Z 24022KT 22/M08 A2991 RMK A01 T02161081  RH  013%=      5-min Rain = 0
KSB1 211942Z 24024G29KT 22/M08 A2991 RMK A01 T02161082  RH  013%=      5-min Rain = 0
KSB1 211943Z 24021KT 21/M08 A2991 RMK A01 T02141083  RH  013%=      5-min Rain = 0
KSB1 211944Z 24018KT 21/M08 A2991 RMK A01 T02131082  RH  013%=      5-min Rain = 0
KSB1 211945Z 24018G26KT 22/M08 A2991 RMK A01 T02151081  RH  013%=      5-min Rain = 0
KSB1 211946Z 23018G23KT 22/M08 A2991 RMK A01 T02161081  RH  013%=      5-min Rain = 0
KSB1 211947Z 24018G24KT 22/M08 A2991 RMK A01 T02161081  RH  013%=      5-min Rain = 0
KSB1 211948Z 24019KT 22/M08 A299 RMK A01 T02161081  RH  013%=      5-min Rain = 0
KSB1 211949Z 24019KT 22/M08 A299 RMK A01 T02171080  RH  013%=      5-min Rain = 0
KSB1 211950Z 22018KT 22/M08 A299 RMK A01 T02191079  RH  013%=      5-min Rain = 0
KSB1 211951Z 22022KT 22/M08 A299 RMK A01 T02191081  RH  013%=      5-min Rain = 0
KSB1 211952Z 23021KT 22/M08 A299 RMK A01 T02171081  RH  013%=      5-min Rain = 0
KSB1 211953Z 23018KT 22/M08 A299 RMK A01 T02161080  RH  013%=      5-min Rain = 0
KSB1 211954Z 23019KT 22/M08 A299 RMK A01 T02181079  RH  013%=      5-min Rain = 0
KSB1 211955Z 23020G26KT 22/M08 A299 RMK A01 T02191080  RH  013%=      5-min Rain = 0
KSB1 211956Z 23021KT 22/M08 A2989 RMK A01 T02191080  RH  013%=      5-min Rain = 0
KSB1 211957Z 22019KT 22/M08 A2989 RMK A01 T02181080  RH  013%=      5-min Rain = 0
KSB1 211958Z 23017KT 22/M08 A299 RMK A01 T02171080  RH  013%=      5-min Rain = 0
KSB1 211959Z 23018KT 22/M08 A2989 RMK A01 T02181078  RH  013%=      5-min Rain = 0
KSB1 212000Z 24020KT 22/M08 A2989 RMK A01 T02201080  RH  013%=      5-min Rain = 0
KSB1 212001Z 24021KT 22/M08 A2989 RMK A01 T02211083  RH  012%=      5-min Rain = 0
KSB1 212002Z 24015KT 22/M08 A2989 RMK A01 T02201082  RH  012%=      5-min Rain = 0
KSB1 212003Z 23017G24KT 22/M08 A2989 RMK A01 T02221080  RH  013%=      5-min Rain = 0
KSB1 212004Z 22019G24KT 22/M08 A2989 RMK A01 T02221080  RH  012%=      5-min Rain = 0
KSB1 212005Z 22016G23KT 22/M08 A2989 RMK A01 T02201082  RH  013%=      5-min Rain = 0
KSB1 212006Z 23023KT 22/M08 A2988 RMK A01 T02191081  RH  013%=      5-min Rain = 0
KSB1 212007Z 23018KT 22/M08 A2989 RMK A01 T02191081  RH  013%=      5-min Rain = 0
KSB1 212008Z 23017KT 22/M08 A2988 RMK A01 T02181080  RH  013%=      5-min Rain = 0
KSB1 212009Z 24015KT 22/M08 A2988 RMK A01 T02191081  RH  013%=      5-min Rain = 0
KSB1 212010Z 22018KT 22/M08 A2988 RMK A01 T02201082  RH  013%=      5-min Rain = 0
KSB1 212011Z 23019KT 22/M08 A2988 RMK A01 T02211081  RH  013%=      5-min Rain = 0
KSB1 212012Z 24015KT 22/M08 A2988 RMK A01 T02211080  RH  013%=      5-min Rain = 0
KSB1 212013Z 22013KT 22/M08 A2988 RMK A01 T02221080  RH  013%=      5-min Rain = 0
KSB1 212014Z 22012KT 22/M08 A2988 RMK A01 T02241078  RH  013%=      5-min Rain = 0
KSB1 212015Z 22017G22KT 22/M08 A2988 RMK A01 T02241079  RH  012%=      5-min Rain = 0
KSB1 212016Z 23016G22KT 22/M08 A2988 RMK A01 T02241082  RH  012%=      5-min Rain = 0
KSB1 212017Z 23015G20KT 22/M08 A2988 RMK A01 T02241082  RH  012%=      5-min Rain = 0
KSB1 212018Z 24013KT 23/M08 A2988 RMK A01 T02251081  RH  012%=      5-min Rain = 0
KSB1 212019Z 22021G30KT 23/M08 A2987 RMK A01 T02271082  RH  012%=      5-min Rain = 0
KSB1 212020Z 24027G32KT 23/M09 A2987 RMK A01 T02281087  RH  011%=      5-min Rain = 0
KSB1 212021Z 23017G23KT 23/M09 A2987 RMK A01 T02261088  RH  011%=      5-min Rain = 0
KSB1 212022Z 23016KT 23/M09 A2987 RMK A01 T02261086  RH  012%=      5-min Rain = 0
KSB1 212023Z 24022KT 23/M09 A2987 RMK A01 T02291088  RH  011%=      5-min Rain = 0
KSB1 212024Z 24022G28KT 23/M09 A2987 RMK A01 T02291089  RH  011%=      5-min Rain = 0
KSB1 212025Z 24020KT 23/M09 A2987 RMK A01 T02291090  RH  011%=      5-min Rain = 0
KSB1 212026Z 23022G27KT 23/M09 A2987 RMK A01 T02311088  RH  011%=      5-min Rain = 0
KSB1 212027Z 24017G25KT 23/M09 A2987 RMK A01 T02311089  RH  011%=      5-min Rain = 0
KSB1 212028Z 25011G17KT 23/M09 A2987 RMK A01 T02281090  RH  011%=      5-min Rain = 0
KSB1 212029Z 27011KT 23/M09 A2987 RMK A01 T02281086  RH  012%=      5-min Rain = 0
KSB1 212030Z 26012G20KT 23/M08 A2987 RMK A01 T02321083  RH  011%=      5-min Rain = 0
KSB1 212031Z 23013KT 24/M09 A2987 RMK A01 T02361086  RH  011%=      5-min Rain = 0
KSB1 212032Z 25017KT 24/M09 A2987 RMK A01 T02351089  RH  011%=      5-min Rain = 0
KSB1 212033Z 25013KT 24/M09 A2987 RMK A01 T02351088  RH  011%=      5-min Rain = 0
KSB1 212034Z 23013G23KT 23/M09 A2987 RMK A01 T02331090  RH  011%=      5-min Rain = 0
KSB1 212035Z 23025G30KT 23/M09 A2986 RMK A01 T02341089  RH  011%=      5-min Rain = 0
KSB1 212036Z 24021G28KT 23/M09 A2986 RMK A01 T02341090  RH  011%=      5-min Rain = 0
KSB1 212037Z 23018G28KT 23/M09 A2986 RMK A01 T02331091  RH  011%=      5-min Rain = 0
KSB1 212038Z 23027G32KT 23/M09 A2985 RMK A01 T02341090  RH  011%=      5-min Rain = 0
KSB1 212039Z 23018KT 23/M09 A2986 RMK A01 T02341090  RH  011%=      5-min Rain = 0
KSB1 212040Z 22017KT 24/M09 A2986 RMK A01 T02351089  RH  011%=      5-min Rain = 0
KSB1 212041Z 25021G26KT 24/M09 A2986 RMK A01 T02371088  RH  011%=      5-min Rain = 0
KSB1 212042Z 24021KT 24/M09 A2986 RMK A01 T02381089  RH  011%=      5-min Rain = 0
KSB1 212043Z 23028G37KT 24/M09 A2985 RMK A01 T02361090  RH  011%=      5-min Rain = 0
KSB1 212044Z 25023G32KT 24/M09 A2986 RMK A01 T02351091  RH  011%=      5-min Rain = 0
KSB1 212045Z 25026G36KT 24/M09 A2986 RMK A01 T02351090  RH  011%=      5-min Rain = 0
KSB1 212046Z 24028KT 23/M09 A2985 RMK A01 T02341091  RH  011%=      5-min Rain = 0
KSB1 212047Z 23024G29KT 23/M09 A2985 RMK A01 T02301093  RH  011%=      5-min Rain = 0
KSB1 212048Z 23025G30KT 23/M09 A2985 RMK A01 T02281091  RH  011%=      5-min Rain = 0
KSB1 212049Z 24025G30KT 23/M09 A2985 RMK A01 T02291090  RH  011%=      5-min Rain = 0
KSB1 212050Z 25021KT 23/M09 A2985 RMK A01 T02311090  RH  011%=      5-min Rain = 0
KSB1 212051Z 24021KT 23/M09 A2985 RMK A01 T02311090  RH  011%=      5-min Rain = 0
KSB1 212052Z 27019G25KT 23/M09 A2985 RMK A01 T02331088  RH  011%=      5-min Rain = 0
KSB1 212053Z 25020G26KT 23/M09 A2985 RMK A01 T02311090  RH  011%=      5-min Rain = 0
KSB1 212054Z 23015KT 23/M09 A2985 RMK A01 T02291090  RH  011%=      5-min Rain = 0
KSB1 212055Z 24016G22KT 23/M09 A2985 RMK A01 T02311088  RH  011%=      5-min Rain = 0
KSB1 212056Z 21020KT 23/M09 A2985 RMK A01 T02331087  RH  011%=      5-min Rain = 0
KSB1 212057Z 23021KT 23/M09 A2985 RMK A01 T02331088  RH  011%=      5-min Rain = 0
KSB1 212058Z 23019KT 23/M09 A2985 RMK A01 T02331088  RH  011%=      5-min Rain = 0
KSB1 212059Z 24014KT 23/M09 A2985 RMK A01 T02321090  RH  011%=      5-min Rain = 0
KSB1 212100Z 24012KT 23/M09 A2985 RMK A01 T02321089  RH  011%=      5-min Rain = 0
KSB1 212101Z 23016KT 23/M09 A2985 RMK A01 T02341087  RH  011%=      5-min Rain = 0
KSB1 212102Z 23016KT 24/M09 A2985 RMK A01 T02361087  RH  011%=      5-min Rain = 0
KSB1 212103Z 22017G22KT 24/M09 A2985 RMK A01 T02371086  RH  011%=      5-min Rain = 0
KSB1 212104Z 22014G19KT 24/M09 A2985 RMK A01 T02371086  RH  011%=      5-min Rain = 0
KSB1 212105Z 22021G26KT 24/M09 A2984 RMK A01 T02371086  RH  011%=      5-min Rain = 0
KSB1 212106Z 22022G29KT 24/M09 A2984 RMK A01 T02361089  RH  011%=      5-min Rain = 0
KSB1 212107Z 23022G27KT 24/M09 A2984 RMK A01 T02361087  RH  011%=      5-min Rain = 0
KSB1 212108Z 23021KT 24/M09 A2984 RMK A01 T02351088  RH  011%=      5-min Rain = 0
KSB1 212109Z 23020G29KT 24/M09 A2984 RMK A01 T02351088  RH  011%=      5-min Rain = 0
KSB1 212110Z 23019G25KT 24/M09 A2984 RMK A01 T02371089  RH  011%=      5-min Rain = 0
KSB1 212111Z 24025G30KT 24/M09 A2983 RMK A01 T02381089  RH  011%=      5-min Rain = 0
KSB1 212112Z 23022G29KT 24/M09 A2983 RMK A01 T02361089  RH  011%=      5-min Rain = 0
KSB1 212113Z 23021G26KT 24/M09 A2983 RMK A01 T02361088  RH  011%=      5-min Rain = 0
KSB1 212114Z 23019KT 24/M09 A2984 RMK A01 T02351087  RH  011%=      5-min Rain = 0
KSB1 212115Z 23018G24KT 24/M09 A2984 RMK A01 T02351087  RH  011%=      5-min Rain = 0
KSB1 212116Z 24017KT 24/M09 A2984 RMK A01 T02371086  RH  011%=      5-min Rain = 0
KSB1 212117Z 21016KT 24/M09 A2984 RMK A01 T02391085  RH  011%=      5-min Rain = 0
KSB1 212118Z 22023KT 24/M09 A2983 RMK A01 T02401086  RH  011%=      5-min Rain = 0
KSB1 212119Z 22025KT 24/M09 A2983 RMK A01 T02381088  RH  011%=      5-min Rain = 0
KSB1 212120Z 23020G27KT 24/M09 A2983 RMK A01 T02361090  RH  011%=      5-min Rain = 0
KSB1 212121Z 21016G21KT 23/M09 A2983 RMK A01 T02341089  RH  011%=      5-min Rain = 0
KSB1 212122Z 22013KT 24/M09 A2983 RMK A01 T02351089  RH  011%=      5-min Rain = 0
KSB1 212123Z 23014KT 24/M09 A2983 RMK A01 T02361086  RH  011%=      5-min Rain = 0
KSB1 212124Z 22016KT 24/M09 A2983 RMK A01 T02381086  RH  011%=      5-min Rain = 0
KSB1 212125Z 24011KT 24/M09 A2983 RMK A01 T02361088  RH  011%=      5-min Rain = 0
KSB1 212126Z 23014KT 24/M09 A2983 RMK A01 T02361085  RH  011%=      5-min Rain = 0
KSB1 212127Z 24018KT 24/M09 A2983 RMK A01 T02371086  RH  011%=      5-min Rain = 0
KSB1 212128Z 21015KT 24/M09 A2983 RMK A01 T02351087  RH  011%=      5-min Rain = 0
KSB1 212129Z 22017KT 24/M09 A2983 RMK A01 T02351087  RH  011%=      5-min Rain = 0
KSB1 212130Z 21015KT 24/M09 A2983 RMK A01 T02351087  RH  011%=      5-min Rain = 0
KSB1 212131Z 21018KT 24/M09 A2982 RMK A01 T02371085  RH  011%=      5-min Rain = 0
KSB1 212132Z 22016KT 24/M09 A2983 RMK A01 T02391085  RH  011%=      5-min Rain = 0
KSB1 212133Z 21021KT 24/M09 A2982 RMK A01 T02401085  RH  011%=      5-min Rain = 0
KSB1 212134Z 22021G27KT 24/M09 A2982 RMK A01 T02401089  RH  010%=      5-min Rain = 0
KSB1 212135Z 24020G25KT 24/M09 A2982 RMK A01 T02391089  RH  011%=      5-min Rain = 0
KSB1 212136Z 25019G25KT 24/M09 A2982 RMK A01 T02391090  RH  010%=      5-min Rain = 0
KSB1 212137Z 23022KT 24/M09 A2982 RMK A01 T02391090  RH  010%=      5-min Rain = 0
KSB1 212138Z 22019KT 24/M09 A2982 RMK A01 T02411088  RH  010%=      5-min Rain = 0
KSB1 212139Z 24022G27KT 24/M09 A2982 RMK A01 T02431088  RH  010%=      5-min Rain = 0
KSB1 212140Z 23014KT 24/M09 A2982 RMK A01 T02401091  RH  010%=      5-min Rain = 0
KSB1 212141Z 23014G20KT 24/M09 A2982 RMK A01 T02391089  RH  011%=      5-min Rain = 0
KSB1 212142Z 21015KT 24/M09 A2982 RMK A01 T02401088  RH  011%=      5-min Rain = 0
KSB1 212143Z 21011G17KT 24/M09 A2982 RMK A01 T02421087  RH  011%=      5-min Rain = 0
KSB1 212144Z 21014G19KT 24/M09 A2982 RMK A01 T02431087  RH  010%=      5-min Rain = 0
KSB1 212145Z 23016G21KT 24/M09 A2982 RMK A01 T02441089  RH  010%=      5-min Rain = 0
KSB1 212146Z 24017KT 24/M09 A2981 RMK A01 T02431092  RH  010%=      5-min Rain = 0
KSB1 212147Z 21018G28KT 24/M09 A2981 RMK A01 T02411093  RH  010%=      5-min Rain = 0
KSB1 212148Z 23026G35KT 24/M09 A298 RMK A01 T02411093  RH  010%=      5-min Rain = 0
KSB1 212149Z 22028G36KT 24/M10 A298 RMK A01 T02401095  RH  010%=      5-min Rain = 0
KSB1 212150Z 24020G27KT 24/M09 A2981 RMK A01 T02401093  RH  010%=      5-min Rain = 0
KSB1 212151Z 24019G24KT 24/M09 A2981 RMK A01 T02431090  RH  010%=      5-min Rain = 0
KSB1 212152Z 23020KT 24/M09 A2981 RMK A01 T02441093  RH  010%=      5-min Rain = 0
KSB1 212153Z 24020KT 24/M09 A2981 RMK A01 T02431093  RH  010%=      5-min Rain = 0
KSB1 212154Z 25017G24KT 24/M09 A2981 RMK A01 T02431093  RH  010%=      5-min Rain = 0
KSB1 212155Z 23019G24KT 25/M09 A2981 RMK A01 T02451093  RH  010%=      5-min Rain = 0
KSB1 212156Z 24017KT 24/M09 A2981 RMK A01 T02441093  RH  010%=      5-min Rain = 0
KSB1 212157Z 23023G32KT 25/M09 A298 RMK A01 T02451094  RH  010%=      5-min Rain = 0
KSB1 212158Z 23024G30KT 24/M09 A298 RMK A01 T02441094  RH  010%=      5-min Rain = 0
KSB1 212159Z 23024G29KT 24/M09 A298 RMK A01 T02431094  RH  010%=      5-min Rain = 0
KSB1 212200Z 22017KT 24/M09 A2981 RMK A01 T02421094  RH  010%=      5-min Rain = 0
KSB1 212201Z 23017G23KT 24/M09 A2981 RMK A01 T02441092  RH  010%=      5-min Rain = 0
KSB1 212202Z 24017KT 25/M09 A2981 RMK A01 T02461092  RH  010%=      5-min Rain = 0
KSB1 212203Z 23016KT 25/M09 A2981 RMK A01 T02461091  RH  010%=      5-min Rain = 0
KSB1 212204Z 23014KT 25/M09 A2981 RMK A01 T02461090  RH  010%=      5-min Rain = 0
KSB1 212205Z 24019G29KT 24/M09 A2981 RMK A01 T02441093  RH  010%=      5-min Rain = 0
KSB1 212206Z 23019G25KT 24/M09 A298 RMK A01 T02431093  RH  010%=      5-min Rain = 0
KSB1 212207Z 22020G26KT 24/M09 A298 RMK A01 T02431092  RH  010%=      5-min Rain = 0
KSB1 212208Z 23022G27KT 24/M09 A298 RMK A01 T02431093  RH  010%=      5-min Rain = 0
KSB1 212209Z 23021KT 24/M09 A298 RMK A01 T02441094  RH  010%=      5-min Rain = 0
KSB1 212210Z 24019KT 24/M09 A298 RMK A01 T02441093  RH  010%=      5-min Rain = 0
KSB1 212211Z 23018KT 24/M09 A2981 RMK A01 T02441093  RH  010%=      5-min Rain = 0
KSB1 212212Z 23016KT 25/M09 A2981 RMK A01 T02451094  RH  010%=      5-min Rain = 0
KSB1 212213Z 25024G30KT 25/M09 A298 RMK A01 T02451094  RH  010%=      5-min Rain = 0
KSB1 212214Z 24024G31KT 24/M10 A298 RMK A01 T02431098  RH  010%=      5-min Rain = 0
KSB1 212215Z 24027KT 24/M10 A2979 RMK A01 T02421097  RH  010%=      5-min Rain = 0
KSB1 212216Z 23020G27KT 24/M10 A298 RMK A01 T02421097  RH  010%=      5-min Rain = 0
KSB1 212217Z 24020KT 24/M10 A298 RMK A01 T02421097  RH  010%=      5-min Rain = 0
KSB1 212218Z 24021G26KT 24/M10 A298 RMK A01 T02411097  RH  010%=      5-min Rain = 0
KSB1 212219Z 24017G23KT 24/M10 A298 RMK A01 T02401097  RH  010%=      5-min Rain = 0
KSB1 212220Z 23018KT 24/M10 A298 RMK A01 T02401096  RH  010%=      5-min Rain = 0
KSB1 212221Z 23017KT 24/M10 A298 RMK A01 T02391096  RH  010%=      5-min Rain = 0
KSB1 212222Z 24016KT 24/M10 A298 RMK A01 T02391095  RH  010%=      5-min Rain = 0
KSB1 212223Z 22016KT 24/M10 A298 RMK A01 T02391096  RH  010%=      5-min Rain = 0
KSB1 212224Z 22017G26KT 24/M10 A298 RMK A01 T02391097  RH  010%=      5-min Rain = 0
KSB1 212225Z 22027G32KT 24/M10 A2979 RMK A01 T02401097  RH  010%=      5-min Rain = 0
KSB1 212226Z 23021KT 24/M10 A2979 RMK A01 T02401096  RH  010%=      5-min Rain = 0
KSB1 212227Z 24020KT 24/M10 A2979 RMK A01 T02401096  RH  010%=      5-min Rain = 0
KSB1 212228Z 23018KT 24/M10 A2979 RMK A01 T02401097  RH  010%=      5-min Rain = 0
KSB1 212229Z 23016KT 24/M10 A2979 RMK A01 T02411097  RH  010%=      5-min Rain = 0
KSB1 212230Z 24015KT 24/M10 A298 RMK A01 T02421096  RH  010%=      5-min Rain = 0
KSB1 212231Z 23016KT 24/M10 A2979 RMK A01 T02441095  RH  010%=      5-min Rain = 0
KSB1 212232Z 23019KT 25/M10 A2979 RMK A01 T02451098  RH  010%=      5-min Rain = 0
KSB1 212233Z 24020KT 24/M10 A2979 RMK A01 T02431100  RH  009%=      5-min Rain = 0
KSB1 212234Z 24017KT 24/M10 A2979 RMK A01 T02431101  RH  009%=      5-min Rain = 0
KSB1 212235Z 24019G24KT 24/M10 A2979 RMK A01 T02431101  RH  009%=      5-min Rain = 0
KSB1 212236Z 23022KT 24/M10 A2979 RMK A01 T02431101  RH  009%=      5-min Rain = 0
KSB1 212237Z 24021G27KT 24/M10 A2979 RMK A01 T02431102  RH  009%=      5-min Rain = 0
KSB1 212238Z 23025KT 24/M10 A2979 RMK A01 T02411101  RH  009%=      5-min Rain = 0
KSB1 212239Z 24022G27KT 24/M10 A2979 RMK A01 T02411101  RH  009%=      5-min Rain = 0
KSB1 212240Z 23022G28KT 24/M10 A2979 RMK A01 T02391101  RH  010%=      5-min Rain = 0
KSB1 212241Z 24022G28KT 24/M10 A2979 RMK A01 T02391101  RH  010%=      5-min Rain = 0
KSB1 212242Z 22024G32KT 24/M10 A2979 RMK A01 T02391101  RH  010%=      5-min Rain = 0
KSB1 212243Z 23022KT 24/M10 A2979 RMK A01 T02391101  RH  010%=      5-min Rain = 0
KSB1 212244Z 24022G28KT 24/M10 A2979 RMK A01 T02391100  RH  010%=      5-min Rain = 0
KSB1 212245Z 24017KT 24/M10 A2979 RMK A01 T02401100  RH  010%=      5-min Rain = 0
KSB1 212246Z 24020G25KT 24/M10 A2979 RMK A01 T02391099  RH  010%=      5-min Rain = 0
KSB1 212247Z 23019G24KT 24/M10 A2979 RMK A01 T02391100  RH  010%=      5-min Rain = 0
KSB1 212248Z 24020KT 24/M10 A2979 RMK A01 T02401098  RH  010%=      5-min Rain = 0
KSB1 212249Z 24016G21KT 24/M10 A298 RMK A01 T02411098  RH  010%=      5-min Rain = 0
KSB1 212250Z 24022KT 24/M10 A2979 RMK A01 T02421098  RH  010%=      5-min Rain = 0
KSB1 212251Z 25022KT 24/M10 A2979 RMK A01 T02411098  RH  010%=      5-min Rain = 0
KSB1 212252Z 24023G29KT 24/M10 A2979 RMK A01 T02391098  RH  010%=      5-min Rain = 0
KSB1 212253Z 25016KT 24/M10 A2979 RMK A01 T02381098  RH  010%=      5-min Rain = 0
KSB1 212254Z 26014KT 24/M10 A298 RMK A01 T02381097  RH  010%=      5-min Rain = 0
KSB1 212255Z 27015G20KT 24/M10 A298 RMK A01 T02391096  RH  010%=      5-min Rain = 0
KSB1 212256Z 25019G25KT 24/M10 A2979 RMK A01 T02391096  RH  010%=      5-min Rain = 0
KSB1 212257Z 25019KT 24/M10 A2979 RMK A01 T02371096  RH  010%=      5-min Rain = 0
KSB1 212258Z 25022KT 24/M10 A2979 RMK A01 T02361096  RH  010%=      5-min Rain = 0
KSB1 212259Z 24020KT 24/M10 A2979 RMK A01 T02351095  RH  010%=      5-min Rain = 0
KSB1 212300Z 26017KT 23/M10 A2979 RMK A01 T02341095  RH  010%=      5-min Rain = 0
KSB1 212301Z 26018KT 24/M10 A298 RMK A01 T02351095  RH  010%=      5-min Rain = 0
KSB1 212302Z 26022G29KT 24/M10 A2979 RMK A01 T02361095  RH  010%=      5-min Rain = 0
KSB1 212303Z 26024G30KT 24/M10 A2979 RMK A01 T02351095  RH  010%=      5-min Rain = 0
KSB1 212304Z 25019G24KT 23/M10 A2979 RMK A01 T02341096  RH  010%=      5-min Rain = 0
KSB1 212305Z 26017G22KT 23/M10 A298 RMK A01 T02341096  RH  010%=      5-min Rain = 0
KSB1 212306Z 26015KT 23/M10 A298 RMK A01 T02341096  RH  010%=      5-min Rain = 0
KSB1 212307Z 25017G24KT 23/M10 A298 RMK A01 T02341095  RH  010%=      5-min Rain = 0
KSB1 212308Z 24017G27KT 23/M10 A2979 RMK A01 T02341095  RH  010%=      5-min Rain = 0
KSB1 212309Z 26021G29KT 23/M10 A2979 RMK A01 T02341095  RH  010%=      5-min Rain = 0
KSB1 212310Z 25016KT 23/M10 A298 RMK A01 T02341095  RH  010%=      5-min Rain = 0
KSB1 212311Z 27016KT 23/M10 A298 RMK A01 T02341095  RH  010%=      5-min Rain = 0
KSB1 212312Z 26016G21KT 23/M10 A298 RMK A01 T02341095  RH  010%=      5-min Rain = 0
KSB1 212313Z 25016G23KT 23/M09 A298 RMK A01 T02341094  RH  010%=      5-min Rain = 0
KSB1 212314Z 24016KT 23/M09 A298 RMK A01 T02331093  RH  011%=      5-min Rain = 0
KSB1 212315Z 24020G27KT 23/M09 A2979 RMK A01 T02321094  RH  011%=      5-min Rain = 0
KSB1 212316Z 26018KT 23/M09 A298 RMK A01 T02321094  RH  011%=      5-min Rain = 0
KSB1 212317Z 24017G22KT 23/M09 A2979 RMK A01 T02321093  RH  011%=      5-min Rain = 0
KSB1 212318Z 23015KT 23/M09 A2979 RMK A01 T02311094  RH  011%=      5-min Rain = 0
KSB1 212319Z 23021KT 23/M09 A2979 RMK A01 T02311094  RH  011%=      5-min Rain = 0
KSB1 212320Z 24022KT 23/M10 A2979 RMK A01 T02301095  RH  011%=      5-min Rain = 0
KSB1 212321Z 24024G31KT 23/M10 A2979 RMK A01 T02301095  RH  011%=      5-min Rain = 0
KSB1 212322Z 24022G28KT 23/M10 A2978 RMK A01 T02301096  RH  011%=      5-min Rain = 0
KSB1 212323Z 23020KT 23/M10 A2979 RMK A01 T02301096  RH  011%=      5-min Rain = 0
KSB1 212324Z 24018KT 23/M10 A2979 RMK A01 T02301095  RH  011%=      5-min Rain = 0
KSB1 212325Z 26014KT 23/M09 A2979 RMK A01 T02301094  RH  011%=      5-min Rain = 0
KSB1 212326Z 25013KT 23/M09 A2979 RMK A01 T02301094  RH  011%=      5-min Rain = 0
KSB1 212327Z 25015G25KT 23/M09 A2979 RMK A01 T02301093  RH  011%=      5-min Rain = 0
KSB1 212328Z 25025G30KT 23/M09 A2979 RMK A01 T02301093  RH  011%=      5-min Rain = 0
KSB1 212329Z 26018KT 23/M09 A2979 RMK A01 T02301094  RH  011%=      5-min Rain = 0
KSB1 212330Z 24022G28KT 23/M09 A2979 RMK A01 T02291094  RH  011%=      5-min Rain = 0
KSB1 212331Z 23025KT 23/M10 A2978 RMK A01 T02291096  RH  011%=      5-min Rain = 0
KSB1 212332Z 24022KT 23/M10 A2978 RMK A01 T02291097  RH  011%=      5-min Rain = 0
KSB1 212333Z 25014KT 23/M10 A2979 RMK A01 T02281097  RH  011%=      5-min Rain = 0
KSB1 212334Z 25015G20KT 23/M10 A2979 RMK A01 T02281097  RH  011%=      5-min Rain = 0
KSB1 212335Z 24018KT 23/M10 A2979 RMK A01 T02271097  RH  011%=      5-min Rain = 0
KSB1 212336Z 24019KT 23/M10 A2979 RMK A01 T02271097  RH  011%=      5-min Rain = 0
KSB1 212337Z 24016KT 23/M10 A2979 RMK A01 T02261097  RH  011%=      5-min Rain = 0
KSB1 212338Z 24014KT 23/M10 A2979 RMK A01 T02261097  RH  011%=      5-min Rain = 0
KSB1 212339Z 26010KT 23/M10 A2979 RMK A01 T02251096  RH  011%=      5-min Rain = 0
KSB1 212340Z 26012KT 22/M10 A2979 RMK A01 T02241096  RH  011%=      5-min Rain = 0
KSB1 212341Z 24011KT 22/M10 A2979 RMK A01 T02231096  RH  011%=      5-min Rain = 0
KSB1 212342Z 25014KT 22/M10 A2979 RMK A01 T02231096  RH  011%=      5-min Rain = 0
KSB1 212343Z 24017G23KT 22/M10 A2979 RMK A01 T02221096  RH  011%=      5-min Rain = 0
KSB1 212344Z 24020G25KT 22/M10 A2979 RMK A01 T02221097  RH  011%=      5-min Rain = 0
KSB1 212345Z 25018G24KT 22/M10 A2979 RMK A01 T02221097  RH  011%=      5-min Rain = 0
KSB1 212346Z 26017G22KT 22/M10 A2979 RMK A01 T02221097  RH  011%=      5-min Rain = 0
KSB1 212347Z 25020KT 22/M10 A2979 RMK A01 T02221097  RH  011%=      5-min Rain = 0
KSB1 212348Z 24015KT 22/M10 A2979 RMK A01 T02231096  RH  011%=      5-min Rain = 0
KSB1 212349Z 25013KT 22/M10 A2979 RMK A01 T02221097  RH  011%=      5-min Rain = 0
KSB1 212350Z 25013KT 22/M10 A2979 RMK A01 T02201096  RH  011%=      5-min Rain = 0
KSB1 212351Z 25011KT 22/M10 A2979 RMK A01 T02201096  RH  011%=      5-min Rain = 0
KSB1 212352Z 26013KT 22/M10 A2979 RMK A01 T02191096  RH  011%=      5-min Rain = 0
KSB1 212353Z 25012KT 22/M10 A2979 RMK A01 T02191096  RH  011%=      5-min Rain = 0
KSB1 212354Z 25014KT 22/M10 A2979 RMK A01 T02181097  RH  011%=      5-min Rain = 0
KSB1 212355Z 25012KT 22/M10 A2979 RMK A01 T02181096  RH  011%=      5-min Rain = 0
KSB1 212356Z 24016G21KT 22/M10 A2979 RMK A01 T02171096  RH  011%=      5-min Rain = 0
KSB1 212357Z 26017KT 22/M10 A2979 RMK A01 T02171097  RH  011%=      5-min Rain = 0
KSB1 212358Z 25017G23KT 22/M10 A2978 RMK A01 T02181097  RH  011%=      5-min Rain = 0
KSB1 212359Z 25016KT 22/M10 A2979 RMK A01 T02181097  RH  011%=      5-min Rain = 0
KSB1 220000Z 25018KT 22/M10 A2978 RMK A01 T02181097  RH  011%=      5-min Rain = 0
KSB1 220001Z 25016KT 22/M10 A2979 RMK A01 T02181097  RH  011%=      5-min Rain = 0
KSB1 220002Z 25015KT 22/M10 A2979 RMK A01 T02171097  RH  011%=      5-min Rain = 0
KSB1 220003Z 25019G24KT 22/M10 A2978 RMK A01 T02171097  RH  011%=      5-min Rain = 0
KSB1 220004Z 25016KT 22/M10 A2978 RMK A01 T02181097  RH  011%=      5-min Rain = 0
KSB1 220005Z 25014KT 22/M10 A2978 RMK A01 T02181097  RH  011%=      5-min Rain = 0
KSB1 220006Z 25016G21KT 22/M10 A2978 RMK A01 T02171097  RH  011%=      5-min Rain = 0
KSB1 220007Z 26017KT 22/M10 A2978 RMK A01 T02161097  RH  011%=      5-min Rain = 0
KSB1 220008Z 24021KT 22/M10 A2978 RMK A01 T02151097  RH  011%=      5-min Rain = 0
KSB1 220009Z 25015KT 22/M10 A2978 RMK A01 T02151097  RH  011%=      5-min Rain = 0
KSB1 220010Z 25021KT 22/M10 A2978 RMK A01 T02151097  RH  011%=      5-min Rain = 0
KSB1 220011Z 24025G30KT 22/M10 A2978 RMK A01 T02151096  RH  011%=      5-min Rain = 0
KSB1 220012Z 24022G27KT 22/M10 A2978 RMK A01 T02161097  RH  011%=      5-min Rain = 0
KSB1 220013Z 25021G27KT 22/M10 A2978 RMK A01 T02151098  RH  011%=      5-min Rain = 0
KSB1 220014Z 25022KT 22/M10 A2978 RMK A01 T02151098  RH  011%=      5-min Rain = 0
KSB1 220015Z 25020KT 22/M10 A2978 RMK A01 T02161098  RH  011%=      5-min Rain = 0
KSB1 220016Z 24020G25KT 22/M10 A2978 RMK A01 T02151097  RH  011%=      5-min Rain = 0
KSB1 220017Z 25017G22KT 21/M10 A2978 RMK A01 T02141097  RH  011%=      5-min Rain = 0
KSB1 220018Z 25019G27KT 21/M10 A2978 RMK A01 T02131097  RH  012%=      5-min Rain = 0
KSB1 220019Z 26026G31KT 21/M10 A2978 RMK A01 T02141097  RH  012%=      5-min Rain = 0
KSB1 220020Z 24021G26KT 21/M10 A2978 RMK A01 T02141097  RH  011%=      5-min Rain = 0
KSB1 220021Z 24019G26KT 22/M10 A2978 RMK A01 T02151097  RH  011%=      5-min Rain = 0
KSB1 220022Z 25025G32KT 21/M10 A2977 RMK A01 T02141097  RH  012%=      5-min Rain = 0
KSB1 220023Z 25025G30KT 21/M10 A2978 RMK A01 T02141097  RH  011%=      5-min Rain = 0
KSB1 220024Z 26029G36KT 22/M10 A2977 RMK A01 T02151097  RH  011%=      5-min Rain = 0
KSB1 220025Z 24023G29KT 22/M10 A2977 RMK A01 T02151098  RH  011%=      5-min Rain = 0
KSB1 220026Z 25023KT 22/M10 A2978 RMK A01 T02151098  RH  011%=      5-min Rain = 0
KSB1 220027Z 25026G35KT 22/M10 A2978 RMK A01 T02151097  RH  011%=      5-min Rain = 0
KSB1 220028Z 25027G33KT 22/M10 A2977 RMK A01 T02151098  RH  011%=      5-min Rain = 0
KSB1 220029Z 25033G42KT 22/M10 A2977 RMK A01 T02151097  RH  011%=      5-min Rain = 0
KSB1 220030Z 25024G29KT 22/M10 A2978 RMK A01 T02151098  RH  011%=      5-min Rain = 0
KSB1 220031Z 25030G35KT 22/M10 A2977 RMK A01 T02151098  RH  011%=      5-min Rain = 0
KSB1 220032Z 25030KT 22/M10 A2977 RMK A01 T02151098  RH  011%=      5-min Rain = 0
KSB1 220033Z 25024G29KT 22/M10 A2977 RMK A01 T02151098  RH  011%=      5-min Rain = 0
KSB1 220034Z 25027G34KT 22/M10 A2977 RMK A01 T02161097  RH  011%=      5-min Rain = 0
KSB1 220035Z 25024G29KT 22/M10 A2978 RMK A01 T02151098  RH  011%=      5-min Rain = 0
KSB1 220036Z 25021G28KT 22/M10 A2978 RMK A01 T02151098  RH  011%=      5-min Rain = 0
KSB1 220037Z 25022G33KT 21/M10 A2978 RMK A01 T02141098  RH  011%=      5-min Rain = 0
KSB1 220038Z 25028G34KT 21/M10 A2978 RMK A01 T02131098  RH  011%=      5-min Rain = 0
KSB1 220039Z 25027G32KT 21/M10 A2977 RMK A01 T02131098  RH  011%=      5-min Rain = 0
KSB1 220040Z 25023G32KT 21/M10 A2978 RMK A01 T02141098  RH  011%=      5-min Rain = 0
KSB1 220041Z 25026G34KT 21/M10 A2977 RMK A01 T02131098  RH  011%=      5-min Rain = 0
KSB1 220042Z 25028G34KT 21/M10 A2977 RMK A01 T02131098  RH  011%=      5-min Rain = 0
KSB1 220043Z 25021G26KT 21/M10 A2978 RMK A01 T02131098  RH  012%=      5-min Rain = 0
KSB1 220044Z 25025G32KT 21/M10 A2978 RMK A01 T02131098  RH  012%=      5-min Rain = 0
KSB1 220045Z 24025G30KT 21/M10 A2978 RMK A01 T02121098  RH  012%=      5-min Rain = 0
KSB1 220046Z 24026KT 21/M10 A2978 RMK A01 T02121098  RH  012%=      5-min Rain = 0
KSB1 220047Z 25025G32KT 21/M10 A2978 RMK A01 T02121098  RH  012%=      5-min Rain = 0
KSB1 220048Z 24023G32KT 21/M10 A2978 RMK A01 T02121096  RH  012%=      5-min Rain = 0
KSB1 220049Z 25025G31KT 21/M10 A2978 RMK A01 T02121096  RH  012%=      5-min Rain = 0
KSB1 220050Z 24028KT 21/M10 A2977 RMK A01 T02121096  RH  012%=      5-min Rain = 0
KSB1 220051Z 24029KT 21/M10 A2977 RMK A01 T02111097  RH  012%=      5-min Rain = 0
KSB1 220052Z 24025G30KT 21/M10 A2977 RMK A01 T02131096  RH  012%=      5-min Rain = 0
KSB1 220053Z 25024G30KT 21/M10 A2978 RMK A01 T02131096  RH  012%=      5-min Rain = 0
KSB1 220054Z 24023G29KT 21/M10 A2978 RMK A01 T02121097  RH  012%=      5-min Rain = 0
KSB1 220055Z 24024KT 21/M10 A2978 RMK A01 T02111097  RH  012%=      5-min Rain = 0
KSB1 220056Z 24023G28KT 21/M10 A2978 RMK A01 T02111097  RH  012%=      5-min Rain = 0
KSB1 220057Z 25024G31KT 21/M10 A2978 RMK A01 T02111097  RH  012%=      5-min Rain = 0
KSB1 220058Z 25026G32KT 21/M10 A2978 RMK A01 T02101097  RH  012%=      5-min Rain = 0
KSB1 220059Z 24021G26KT 21/M10 A2978 RMK A01 T02111097  RH  012%=      5-min Rain = 0
KSB1 220100Z 24020KT 21/M10 A2978 RMK A01 T02111097  RH  012%=      5-min Rain = 0
KSB1 220101Z 24018KT 21/M10 A2979 RMK A01 T02101096  RH  012%=      5-min Rain = 0
KSB1 220102Z 25019KT 21/M10 A2979 RMK A01 T02091096  RH  012%=      5-min Rain = 0
KSB1 220103Z 24020KT 21/M10 A2979 RMK A01 T02091096  RH  012%=      5-min Rain = 0
KSB1 220104Z 24021KT 21/M10 A2978 RMK A01 T02091096  RH  012%=      5-min Rain = 0
KSB1 220105Z 24021G26KT 21/M10 A2979 RMK A01 T02091096  RH  012%=      5-min Rain = 0
KSB1 220106Z 24020KT 21/M10 A2979 RMK A01 T02091096  RH  012%=      5-min Rain = 0
KSB1 220107Z 23021KT 21/M10 A2979 RMK A01 T02091095  RH  012%=      5-min Rain = 0
KSB1 220108Z 24022KT 21/M10 A2978 RMK A01 T02091095  RH  012%=      5-min Rain = 0
KSB1 220109Z 24025G31KT 21/M10 A2978 RMK A01 T02091095  RH  012%=      5-min Rain = 0
KSB1 220110Z 26028G35KT 21/M10 A2978 RMK A01 T02101095  RH  012%=      5-min Rain = 0
KSB1 220111Z 25026G33KT 21/M09 A2978 RMK A01 T02111094  RH  012%=      5-min Rain = 0
KSB1 220112Z 25023KT 21/M09 A2979 RMK A01 T02111094  RH  012%=      5-min Rain = 0
KSB1 220113Z 24020KT 21/M10 A2979 RMK A01 T02111095  RH  012%=      5-min Rain = 0
KSB1 220114Z 25021G27KT 21/M10 A2978 RMK A01 T02101095  RH  012%=      5-min Rain = 0
KSB1 220115Z 24021G26KT 21/M10 A2978 RMK A01 T02091095  RH  012%=      5-min Rain = 0
KSB1 220116Z 25023KT 21/M09 A2979 RMK A01 T02091094  RH  012%=      5-min Rain = 0
KSB1 220117Z 25027G37KT 21/M09 A2978 RMK A01 T02101093  RH  012%=      5-min Rain = 0
KSB1 220118Z 25028G33KT 21/M09 A2978 RMK A01 T02101094  RH  012%=      5-min Rain = 0
KSB1 220119Z 25026G32KT 21/M10 A2978 RMK A01 T02101095  RH  012%=      5-min Rain = 0
KSB1 220120Z 24025G31KT 21/M10 A2978 RMK A01 T02101095  RH  012%=      5-min Rain = 0
KSB1 220121Z 25026G31KT 21/M09 A2978 RMK A01 T02101094  RH  012%=      5-min Rain = 0
KSB1 220122Z 25027G36KT 21/M09 A2978 RMK A01 T02101094  RH  012%=      5-min Rain = 0
KSB1 220123Z 25026G33KT 21/M10 A2978 RMK A01 T02101095  RH  012%=      5-min Rain = 0
KSB1 220124Z 25031G37KT 21/M10 A2977 RMK A01 T02101096  RH  012%=      5-min Rain = 0
KSB1 220125Z 24030KT 21/M10 A2978 RMK A01 T02101096  RH  012%=      5-min Rain = 0
KSB1 220126Z 25029G35KT 21/M10 A2978 RMK A01 T02101096  RH  012%=      5-min Rain = 0
KSB1 220127Z 25026G33KT 21/M10 A2978 RMK A01 T02101097  RH  012%=      5-min Rain = 0
KSB1 220128Z 25023G29KT 21/M10 A2978 RMK A01 T02101096  RH  012%=      5-min Rain = 0
KSB1 220129Z 26021G26KT 21/M10 A2979 RMK A01 T02091096  RH  012%=      5-min Rain = 0
KSB1 220130Z 25021KT 21/M10 A2979 RMK A01 T02081096  RH  012%=      5-min Rain = 0
KSB1 220131Z 24022G29KT 21/M10 A2979 RMK A01 T02081096  RH  012%=      5-min Rain = 0
KSB1 220132Z 25021G27KT 21/M10 A2979 RMK A01 T02071096  RH  012%=      5-min Rain = 0
KSB1 220133Z 24026G31KT 21/M10 A2978 RMK A01 T02081095  RH  012%=      5-min Rain = 0
KSB1 220134Z 26022G28KT 21/M10 A2979 RMK A01 T02081095  RH  012%=      5-min Rain = 0
KSB1 220135Z 24027G38KT 21/M10 A2978 RMK A01 T02091095  RH  012%=      5-min Rain = 0
KSB1 220136Z 26025KT 21/M10 A2979 RMK A01 T02091095  RH  012%=      5-min Rain = 0
KSB1 220137Z 25027G33KT 21/M10 A2978 RMK A01 T02091095  RH  012%=      5-min Rain = 0
KSB1 220138Z 25024G30KT 21/M10 A2978 RMK A01 T02081095  RH  012%=      5-min Rain = 0
KSB1 220139Z 24024G30KT 21/M09 A2979 RMK A01 T02081094  RH  012%=      5-min Rain = 0
KSB1 220140Z 25020KT 21/M09 A2979 RMK A01 T02081094  RH  012%=      5-min Rain = 0
KSB1 220141Z 24021G29KT 21/M10 A2979 RMK A01 T02061095  RH  012%=      5-min Rain = 0
KSB1 220142Z 24025G30KT 21/M10 A2979 RMK A01 T02061095  RH  012%=      5-min Rain = 0
KSB1 220143Z 24026KT 21/M10 A2979 RMK A01 T02061095  RH  012%=      5-min Rain = 0
KSB1 220144Z 24021G26KT 21/M10 A2979 RMK A01 T02071095  RH  012%=      5-min Rain = 0
KSB1 220145Z 24022KT 21/M10 A2979 RMK A01 T02061096  RH  012%=      5-min Rain = 0
KSB1 220146Z 24022G28KT 21/M10 A2979 RMK A01 T02061096  RH  012%=      5-min Rain = 0
KSB1 220147Z 24020G27KT 21/M10 A2979 RMK A01 T02061096  RH  012%=      5-min Rain = 0
KSB1 220148Z 24025G30KT 21/M10 A2979 RMK A01 T02061095  RH  012%=      5-min Rain = 0
KSB1 220149Z 24021KT 21/M10 A2979 RMK A01 T02051095  RH  012%=      5-min Rain = 0
KSB1 220150Z 24020G25KT 21/M10 A2979 RMK A01 T02051096  RH  012%=      5-min Rain = 0
KSB1 220151Z 24020KT 20/M10 A2979 RMK A01 T02041096  RH  012%=      5-min Rain = 0
KSB1 220152Z 24019KT 20/M10 A2979 RMK A01 T02041096  RH  012%=      5-min Rain = 0
KSB1 220153Z 24020KT 21/M10 A2979 RMK A01 T02051095  RH  012%=      5-min Rain = 0
KSB1 220154Z 24019KT 20/M10 A2979 RMK A01 T02041095  RH  012%=      5-min Rain = 0
KSB1 220155Z 25022G29KT 20/M10 A2979 RMK A01 T02031095  RH  012%=      5-min Rain = 0
KSB1 220156Z 24025KT 20/M10 A2979 RMK A01 T02041096  RH  012%=      5-min Rain = 0
KSB1 220157Z 24025KT 20/M10 A2979 RMK A01 T02041095  RH  012%=      5-min Rain = 0
KSB1 220158Z 24024G30KT 20/M10 A2979 RMK A01 T02041095  RH  012%=      5-min Rain = 0
KSB1 220159Z 24025G30KT 20/M10 A2979 RMK A01 T02041095  RH  012%=      5-min Rain = 0
KSB1 220200Z 24023G28KT 20/M10 A2979 RMK A01 T02041095  RH  012%=      5-min Rain = 0
KSB1 220201Z 24021KT 20/M10 A2979 RMK A01 T02041095  RH  012%=      5-min Rain = 0
KSB1 220202Z 25025KT 20/M10 A2979 RMK A01 T02041095  RH  012%=      5-min Rain = 0
KSB1 220203Z 24023KT 20/M10 A2979 RMK A01 T02041095  RH  012%=      5-min Rain = 0
KSB1 220204Z 24021KT 20/M10 A2979 RMK A01 T02041095  RH  012%=      5-min Rain = 0
KSB1 220205Z 24017G22KT 20/M10 A298 RMK A01 T02031095  RH  012%=      5-min Rain = 0
KSB1 220206Z 24020KT 20/M10 A2979 RMK A01 T02021095  RH  013%=      5-min Rain = 0
KSB1 220207Z 24023KT 20/M10 A2979 RMK A01 T02021095  RH  013%=      5-min Rain = 0
KSB1 220208Z 24020G26KT 20/M09 A2979 RMK A01 T02021094  RH  013%=      5-min Rain = 0
KSB1 220209Z 24022KT 20/M09 A2979 RMK A01 T02031094  RH  013%=      5-min Rain = 0
KSB1 220210Z 24025KT 20/M09 A2979 RMK A01 T02031094  RH  013%=      5-min Rain = 0
KSB1 220211Z 24024KT 20/M09 A2979 RMK A01 T02031093  RH  013%=      5-min Rain = 0
KSB1 220212Z 25022KT 20/M09 A2979 RMK A01 T02031093  RH  013%=      5-min Rain = 0
KSB1 220213Z 23026KT 20/M09 A2978 RMK A01 T02031093  RH  013%=      5-min Rain = 0
KSB1 220214Z 24024KT 20/M09 A2979 RMK A01 T02031093  RH  013%=      5-min Rain = 0
KSB1 220215Z 24024KT 20/M09 A2979 RMK A01 T02031093  RH  013%=      5-min Rain = 0
KSB1 220216Z 24022G28KT 20/M09 A2979 RMK A01 T02031093  RH  013%=      5-min Rain = 0
KSB1 220217Z 24024G29KT 20/M09 A2979 RMK A01 T02021093  RH  013%=      5-min Rain = 0
KSB1 220218Z 24021G27KT 20/M09 A2979 RMK A01 T02021093  RH  013%=      5-min Rain = 0
KSB1 220219Z 24023KT 20/M09 A2979 RMK A01 T02021092  RH  013%=      5-min Rain = 0
KSB1 220220Z 24021G28KT 20/M09 A2979 RMK A01 T02021093  RH  013%=      5-min Rain = 0
KSB1 220221Z 24024KT 20/M09 A2979 RMK A01 T02021092  RH  013%=      5-min Rain = 0
KSB1 220222Z 24026G31KT 20/M09 A2979 RMK A01 T02021092  RH  013%=      5-min Rain = 0
KSB1 220223Z 24026G31KT 20/M09 A2978 RMK A01 T02021090  RH  013%=      5-min Rain = 0
KSB1 220224Z 24022KT 20/M09 A2979 RMK A01 T02031089  RH  013%=      5-min Rain = 0
KSB1 220225Z 24024G29KT 20/M09 A2979 RMK A01 T02031089  RH  013%=      5-min Rain = 0
KSB1 220226Z 24021G28KT 20/M09 A2979 RMK A01 T02031089  RH  013%=      5-min Rain = 0
KSB1 220227Z 24020G26KT 20/M09 A2979 RMK A01 T02021089  RH  013%=      5-min Rain = 0
KSB1 220228Z 23018KT 20/M09 A2979 RMK A01 T02011089  RH  013%=      5-min Rain = 0
KSB1 220229Z 24020KT 20/M09 A2979 RMK A01 T02001089  RH  013%=      5-min Rain = 0
KSB1 220230Z 24022KT 20/M09 A2979 RMK A01 T02001089  RH  013%=      5-min Rain = 0
KSB1 220231Z 24022G28KT 20/M09 A2979 RMK A01 T02001089  RH  013%=      5-min Rain = 0
KSB1 220232Z 24026KT 20/M09 A2979 RMK A01 T02001088  RH  013%=      5-min Rain = 0
KSB1 220233Z 24024KT 20/M09 A2979 RMK A01 T02021087  RH  013%=      5-min Rain = 0
KSB1 220234Z 24021KT 20/M09 A2979 RMK A01 T02021088  RH  013%=      5-min Rain = 0
KSB1 220235Z 23021KT 20/M09 A2979 RMK A01 T02011088  RH  013%=      5-min Rain = 0
KSB1 220236Z 24021KT 20/M09 A2979 RMK A01 T02011088  RH  013%=      5-min Rain = 0
KSB1 220237Z 24017KT 20/M09 A2979 RMK A01 T02001088  RH  013%=      5-min Rain = 0
KSB1 220238Z 24015G20KT 20/M09 A2979 RMK A01 T01991088  RH  014%=      5-min Rain = 0
KSB1 220239Z 24022G27KT 20/M09 A2979 RMK A01 T01981088  RH  014%=      5-min Rain = 0
KSB1 220240Z 24020G25KT 20/M09 A2979 RMK A01 T01981088  RH  014%=      5-min Rain = 0
KSB1 220241Z 24020KT 20/M09 A2979 RMK A01 T01991088  RH  014%=      5-min Rain = 0
KSB1 220242Z 24022KT 20/M09 A2979 RMK A01 T01991088  RH  014%=      5-min Rain = 0
KSB1 220243Z 24021G26KT 20/M09 A2979 RMK A01 T01991089  RH  014%=      5-min Rain = 0
KSB1 220244Z 24018G24KT 20/M09 A2979 RMK A01 T01991088  RH  014%=      5-min Rain = 0
KSB1 220245Z 24023G28KT 20/M09 A2979 RMK A01 T01981088  RH  014%=      5-min Rain = 0
KSB1 220246Z 24025G31KT 20/M09 A2978 RMK A01 T01991088  RH  014%=      5-min Rain = 0
KSB1 220247Z 24025G30KT 20/M09 A2978 RMK A01 T02001088  RH  013%=      5-min Rain = 0
KSB1 220248Z 24025G30KT 20/M09 A2978 RMK A01 T02001089  RH  013%=      5-min Rain = 0
KSB1 220249Z 25028G33KT 20/M09 A2978 RMK A01 T02001088  RH  013%=      5-min Rain = 0
KSB1 220250Z 23024KT 20/M09 A2978 RMK A01 T02011088  RH  013%=      5-min Rain = 0
KSB1 220251Z 24023KT 20/M09 A2978 RMK A01 T01991089  RH  013%=      5-min Rain = 0
KSB1 220252Z 24024G29KT 20/M09 A2978 RMK A01 T01991089  RH  014%=      5-min Rain = 0
KSB1 220253Z 24023KT 20/M09 A2978 RMK A01 T01991088  RH  014%=      5-min Rain = 0
KSB1 220254Z 23023G29KT 20/M09 A2978 RMK A01 T01991088  RH  014%=      5-min Rain = 0
KSB1 220255Z 24021G26KT 20/M09 A2978 RMK A01 T01981089  RH  014%=      5-min Rain = 0
KSB1 220256Z 23023G29KT 20/M09 A2978 RMK A01 T01981088  RH  014%=      5-min Rain = 0
KSB1 220257Z 23022G27KT 20/M09 A2978 RMK A01 T01971089  RH  014%=      5-min Rain = 0
KSB1 220258Z 24021KT 20/M09 A2978 RMK A01 T01971089  RH  014%=      5-min Rain = 0
KSB1 220259Z 23018KT 20/M09 A2978 RMK A01 T01981088  RH  014%=      5-min Rain = 0
KSB1 220300Z 24023KT 20/M09 A2978 RMK A01 T01971088  RH  014%=      5-min Rain = 0
KSB1 220301Z 24024G30KT 20/M09 A2977 RMK A01 T01961088  RH  014%=      5-min Rain = 0
KSB1 220302Z 23024KT 20/M09 A2977 RMK A01 T01971088  RH  014%=      5-min Rain = 0
KSB1 220303Z 24021KT 20/M09 A2978 RMK A01 T01971088  RH  014%=      5-min Rain = 0
KSB1 220304Z 24026KT 20/M09 A2977 RMK A01 T01971088  RH  014%=      5-min Rain = 0
KSB1 220305Z 23022KT 20/M09 A2978 RMK A01 T01971088  RH  014%=      5-min Rain = 0
KSB1 220306Z 24020KT 20/M09 A2978 RMK A01 T01971088  RH  014%=      5-min Rain = 0
KSB1 220307Z 23020KT 20/M09 A2977 RMK A01 T01961088  RH  014%=      5-min Rain = 0
KSB1 220308Z 24020G26KT 20/M09 A2977 RMK A01 T01951088  RH  014%=      5-min Rain = 0
KSB1 220309Z 24021G26KT 20/M09 A2977 RMK A01 T01951088  RH  014%=      5-min Rain = 0
KSB1 220310Z 24023G28KT 20/M09 A2977 RMK A01 T01951087  RH  014%=      5-min Rain = 0
KSB1 220311Z 23024KT 20/M09 A2977 RMK A01 T01961088  RH  014%=      5-min Rain = 0
KSB1 220312Z 23023G30KT 20/M09 A2977 RMK A01 T01961088  RH  014%=      5-min Rain = 0
KSB1 220313Z 23024G31KT 20/M09 A2977 RMK A01 T01951088  RH  014%=      5-min Rain = 0
KSB1 220314Z 23024G29KT 20/M09 A2977 RMK A01 T01951087  RH  014%=      5-min Rain = 0
KSB1 220315Z 23024G30KT 20/M09 A2976 RMK A01 T01951087  RH  014%=      5-min Rain = 0
KSB1 220316Z 23026G32KT 20/M09 A2976 RMK A01 T01951087  RH  014%=      5-min Rain = 0
KSB1 220317Z 23027G32KT 20/M09 A2976 RMK A01 T01951088  RH  014%=      5-min Rain = 0
KSB1 220318Z 23030G37KT 20/M09 A2976 RMK A01 T01961088  RH  014%=      5-min Rain = 0
KSB1 220319Z 23026KT 20/M09 A2976 RMK A01 T01971087  RH  014%=      5-min Rain = 0
KSB1 220320Z 22026KT 20/M09 A2976 RMK A01 T01971086  RH  014%=      5-min Rain = 0
KSB1 220321Z 23028G33KT 20/M09 A2976 RMK A01 T01971087  RH  014%=      5-min Rain = 0
KSB1 220322Z 23024G30KT 20/M09 A2976 RMK A01 T01961087  RH  014%=      5-min Rain = 0
KSB1 220323Z 23024KT 20/M09 A2976 RMK A01 T01951087  RH  014%=      5-min Rain = 0
KSB1 220324Z 23025KT 20/M09 A2976 RMK A01 T01951086  RH  014%=      5-min Rain = 0
KSB1 220325Z 23022KT 20/M09 A2977 RMK A01 T01951086  RH  014%=      5-min Rain = 0
KSB1 220326Z 23022KT 19/M09 A2976 RMK A01 T01941086  RH  014%=      5-min Rain = 0
KSB1 220327Z 23025G31KT 19/M09 A2976 RMK A01 T01931086  RH  014%=      5-min Rain = 0
KSB1 220328Z 22030G35KT 19/M09 A2976 RMK A01 T01941086  RH  014%=      5-min Rain = 0
KSB1 220329Z 23027G33KT 20/M09 A2976 RMK A01 T01951086  RH  014%=      5-min Rain = 0
KSB1 220330Z 23026KT 20/M09 A2976 RMK A01 T01951087  RH  014%=      5-min Rain = 0
KSB1 220331Z 23026KT 20/M09 A2976 RMK A01 T01951087  RH  014%=      5-min Rain = 0
KSB1 220332Z 23029KT 20/M09 A2976 RMK A01 T01951086  RH  014%=      5-min Rain = 0
KSB1 220333Z 23024G29KT 20/M09 A2976 RMK A01 T01951086  RH  014%=      5-min Rain = 0
KSB1 220334Z 23026G31KT 19/M09 A2976 RMK A01 T01941087  RH  014%=      5-min Rain = 0
KSB1 220335Z 23029KT 19/M09 A2976 RMK A01 T01941086  RH  014%=      5-min Rain = 0
KSB1 220336Z 23023G29KT 20/M09 A2976 RMK A01 T01951086  RH  014%=      5-min Rain = 0
KSB1 220337Z 23024KT 19/M09 A2976 RMK A01 T01931087  RH  014%=      5-min Rain = 0
KSB1 220338Z 23022KT 19/M09 A2976 RMK A01 T01921087  RH  014%=      5-min Rain = 0
KSB1 220339Z 23023KT 19/M09 A2976 RMK A01 T01911087  RH  014%=      5-min Rain = 0
KSB1 220340Z 23021G26KT 19/M09 A2977 RMK A01 T01911086  RH  014%=      5-min Rain = 0
KSB1 220341Z 23021G26KT 19/M09 A2977 RMK A01 T01901087  RH  014%=      5-min Rain = 0
KSB1 220342Z 23022KT 19/M09 A2977 RMK A01 T01901087  RH  015%=      5-min Rain = 0
KSB1 220343Z 23022KT 19/M09 A2977 RMK A01 T01901087  RH  015%=      5-min Rain = 0
KSB1 220344Z 23020KT 19/M09 A2977 RMK A01 T01901087  RH  015%=      5-min Rain = 0
KSB1 220345Z 23022G27KT 19/M09 A2977 RMK A01 T01891087  RH  015%=      5-min Rain = 0
KSB1 220346Z 23021KT 19/M09 A2977 RMK A01 T01901086  RH  015%=      5-min Rain = 0
KSB1 220347Z 23020KT 19/M09 A2977 RMK A01 T01891086  RH  015%=      5-min Rain = 0
KSB1 220348Z 23022KT 19/M09 A2977 RMK A01 T01881087  RH  015%=      5-min Rain = 0
KSB1 220349Z 23022KT 19/M09 A2977 RMK A01 T01881087  RH  015%=      5-min Rain = 0
KSB1 220350Z 23022G28KT 19/M09 A2977 RMK A01 T01881086  RH  015%=      5-min Rain = 0
KSB1 220351Z 23019KT 19/M09 A2977 RMK A01 T01881087  RH  015%=      5-min Rain = 0
KSB1 220352Z 23021KT 19/M09 A2977 RMK A01 T01881087  RH  015%=      5-min Rain = 0
KSB1 220353Z 23021KT 19/M09 A2977 RMK A01 T01871086  RH  015%=      5-min Rain = 0
KSB1 220354Z 23022KT 19/M09 A2977 RMK A01 T01871087  RH  015%=      5-min Rain = 0
KSB1 220355Z 24024KT 19/M09 A2977 RMK A01 T01871087  RH  015%=      5-min Rain = 0
KSB1 220356Z 23023KT 19/M09 A2976 RMK A01 T01871087  RH  015%=      5-min Rain = 0
KSB1 220357Z 23023KT 19/M09 A2976 RMK A01 T01871087  RH  015%=      5-min Rain = 0
KSB1 220358Z 23021G26KT 19/M09 A2976 RMK A01 T01881087  RH  015%=      5-min Rain = 0
KSB1 220359Z 23024KT 19/M09 A2976 RMK A01 T01881086  RH  015%=      5-min Rain = 0
KSB1 220400Z 24019KT 19/M09 A2976 RMK A01 T01881086  RH  015%=      5-min Rain = 0
KSB1 220401Z 24019G24KT 19/M09 A2976 RMK A01 T01861087  RH  015%=      5-min Rain = 0
KSB1 220402Z 23021G26KT 19/M09 A2976 RMK A01 T01861087  RH  015%=      5-min Rain = 0
KSB1 220403Z 24020KT 19/M09 A2977 RMK A01 T01861086  RH  015%=      5-min Rain = 0
KSB1 220404Z 24021KT 19/M09 A2977 RMK A01 T01861087  RH  015%=      5-min Rain = 0
KSB1 220405Z 24019KT 19/M09 A2977 RMK A01 T01861086  RH  015%=      5-min Rain = 0
KSB1 220406Z 24023KT 19/M09 A2976 RMK A01 T01861086  RH  015%=      5-min Rain = 0
KSB1 220407Z 24023KT 19/M09 A2976 RMK A01 T01871086  RH  015%=      5-min Rain = 0
KSB1 220408Z 24021G26KT 19/M09 A2976 RMK A01 T01871086  RH  015%=      5-min Rain = 0
KSB1 220409Z 24022KT 19/M09 A2976 RMK A01 T01871086  RH  015%=      5-min Rain = 0
KSB1 220410Z 24021KT 19/M09 A2977 RMK A01 T01871086  RH  015%=      5-min Rain = 0
KSB1 220411Z 24021KT 19/M09 A2977 RMK A01 T01871086  RH  015%=      5-min Rain = 0
KSB1 220412Z 24019KT 19/M09 A2977 RMK A01 T01861086  RH  015%=      5-min Rain = 0
KSB1 220413Z 24020KT 19/M09 A2977 RMK A01 T01851086  RH  015%=      5-min Rain = 0
KSB1 220414Z 24019KT 18/M09 A2977 RMK A01 T01841087  RH  015%=      5-min Rain = 0
KSB1 220415Z 24024KT 18/M09 A2977 RMK A01 T01841086  RH  015%=      5-min Rain = 0
KSB1 220416Z 24024KT 19/M09 A2977 RMK A01 T01861087  RH  015%=      5-min Rain = 0
KSB1 220417Z 24022G29KT 19/M09 A2977 RMK A01 T01871087  RH  015%=      5-min Rain = 0
KSB1 220418Z 23020KT 19/M09 A2977 RMK A01 T01861087  RH  015%=      5-min Rain = 0
KSB1 220419Z 24020G25KT 19/M09 A2977 RMK A01 T01851087  RH  015%=      5-min Rain = 0
KSB1 220420Z 23024KT 19/M09 A2977 RMK A01 T01851087  RH  015%=      5-min Rain = 0
KSB1 220421Z 24023KT 19/M09 A2977 RMK A01 T01861088  RH  015%=      5-min Rain = 0
KSB1 220422Z 24020KT 19/M09 A2977 RMK A01 T01861088  RH  015%=      5-min Rain = 0
KSB1 220423Z 24019KT 19/M09 A2977 RMK A01 T01861088  RH  015%=      5-min Rain = 0
KSB1 220424Z 23020G26KT 19/M09 A2977 RMK A01 T01851089  RH  015%=      5-min Rain = 0
KSB1 220425Z 24023KT 18/M09 A2977 RMK A01 T01841090  RH  015%=      5-min Rain = 0
KSB1 220426Z 23020KT 19/M09 A2977 RMK A01 T01861090  RH  014%=      5-min Rain = 0
KSB1 220427Z 24020G25KT 19/M09 A2977 RMK A01 T01851091  RH  014%=      5-min Rain = 0
KSB1 220428Z 24023KT 19/M09 A2977 RMK A01 T01851090  RH  015%=      5-min Rain = 0
KSB1 220429Z 23021G26KT 19/M09 A2977 RMK A01 T01851091  RH  014%=      5-min Rain = 0
KSB1 220430Z 24023G29KT 19/M09 A2977 RMK A01 T01851091  RH  014%=      5-min Rain = 0
KSB1 220431Z 23020KT 19/M09 A2977 RMK A01 T01861091  RH  014%=      5-min Rain = 0
KSB1 220432Z 24023KT 19/M09 A2977 RMK A01 T01861091  RH  014%=      5-min Rain = 0
KSB1 220433Z 24023KT 19/M09 A2977 RMK A01 T01861090  RH  014%=      5-min Rain = 0
KSB1 220434Z 23021KT 19/M09 A2977 RMK A01 T01861090  RH  014%=      5-min Rain = 0
KSB1 220435Z 23023KT 19/M09 A2977 RMK A01 T01861090  RH  014%=      5-min Rain = 0
KSB1 220436Z 23021G26KT 19/M09 A2977 RMK A01 T01861090  RH  014%=      5-min Rain = 0
KSB1 220437Z 24022KT 19/M09 A2977 RMK A01 T01861090  RH  014%=      5-min Rain = 0
KSB1 220438Z 24020G27KT 19/M09 A2977 RMK A01 T01851091  RH  014%=      5-min Rain = 0
KSB1 220439Z 23022KT 19/M09 A2977 RMK A01 T01851091  RH  014%=      5-min Rain = 0
KSB1 220440Z 23022KT 19/M09 A2977 RMK A01 T01851091  RH  014%=      5-min Rain = 0
KSB1 220441Z 23020KT 19/M09 A2977 RMK A01 T01861091  RH  014%=      5-min Rain = 0
KSB1 220442Z 23022KT 19/M09 A2977 RMK A01 T01851091  RH  014%=      5-min Rain = 0
KSB1 220443Z 24022G27KT 19/M09 A2977 RMK A01 T01851091  RH  014%=      5-min Rain = 0
KSB1 220444Z 24021KT 19/M09 A2977 RMK A01 T01851092  RH  014%=      5-min Rain = 0
KSB1 220445Z 24023KT 19/M09 A2977 RMK A01 T01851092  RH  014%=      5-min Rain = 0
KSB1 220446Z 24022G27KT 19/M09 A2977 RMK A01 T01851092  RH  014%=      5-min Rain = 0
KSB1 220447Z 24021KT 19/M09 A2977 RMK A01 T01871093  RH  014%=      5-min Rain = 0
KSB1 220448Z 23022G28KT 19/M09 A2978 RMK A01 T01871093  RH  014%=      5-min Rain = 0
KSB1 220449Z 24025KT 19/M09 A2977 RMK A01 T01861092  RH  014%=      5-min Rain = 0
KSB1 220450Z 23022G27KT 19/M09 A2977 RMK A01 T01861092  RH  014%=      5-min Rain = 0
KSB1 220451Z 24023KT 19/M09 A2977 RMK A01 T01861092  RH  014%=      5-min Rain = 0
KSB1 220452Z 24025KT 19/M09 A2977 RMK A01 T01861092  RH  014%=      5-min Rain = 0
KSB1 220453Z 23021KT 19/M09 A2977 RMK A01 T01871093  RH  014%=      5-min Rain = 0
KSB1 220454Z 22022KT 19/M09 A2977 RMK A01 T01861093  RH  014%=      5-min Rain = 0
KSB1 220455Z 23021KT 19/M09 A2977 RMK A01 T01861093  RH  014%=      5-min Rain = 0
KSB1 220456Z 23021G26KT 19/M09 A2977 RMK A01 T01861093  RH  014%=      5-min Rain = 0
KSB1 220457Z 24024KT 19/M09 A2977 RMK A01 T01851093  RH  014%=      5-min Rain = 0
KSB1 220458Z 23024G29KT 19/M09 A2977 RMK A01 T01851092  RH  014%=      5-min Rain = 0
KSB1 220459Z 23026G31KT 19/M09 A2976 RMK A01 T01871092  RH  014%=      5-min Rain = 0
KSB1 220500Z 23026G32KT 19/M09 A2976 RMK A01 T01881093  RH  014%=      5-min Rain = 0
KSB1 220501Z 23023G31KT 19/M09 A2977 RMK A01 T01881093  RH  014%=      5-min Rain = 0
KSB1 220502Z 23025G30KT 19/M09 A2977 RMK A01 T01881093  RH  014%=      5-min Rain = 0
KSB1 220503Z 24021KT 19/M09 A2977 RMK A01 T01881092  RH  014%=      5-min Rain = 0
KSB1 220504Z 23021KT 19/M09 A2977 RMK A01 T01871092  RH  014%=      5-min Rain = 0
KSB1 220505Z 23020KT 19/M09 A2977 RMK A01 T01871092  RH  014%=      5-min Rain = 0
KSB1 220506Z 23022KT 19/M09 A2977 RMK A01 T01861092  RH  014%=      5-min Rain = 0
KSB1 220507Z 23024G29KT 19/M09 A2977 RMK A01 T01851092  RH  014%=      5-min Rain = 0
KSB1 220508Z 22025G30KT 19/M09 A2977 RMK A01 T01851092  RH  014%=      5-min Rain = 0
KSB1 220509Z 23025G30KT 19/M09 A2977 RMK A01 T01861092  RH  014%=      5-min Rain = 0
KSB1 220510Z 22023KT 19/M09 A2977 RMK A01 T01871092  RH  014%=      5-min Rain = 0
KSB1 220511Z 22019G24KT 19/M09 A2977 RMK A01 T01871092  RH  014%=      5-min Rain = 0
KSB1 220512Z 22020KT 19/M09 A2977 RMK A01 T01861091  RH  014%=      5-min Rain = 0
KSB1 220513Z 22021G26KT 18/M09 A2977 RMK A01 T01841092  RH  014%=      5-min Rain = 0
KSB1 220514Z 23023KT 18/M09 A2977 RMK A01 T01841091  RH  015%=      5-min Rain = 0
KSB1 220515Z 23021G26KT 19/M09 A2977 RMK A01 T01851091  RH  014%=      5-min Rain = 0
KSB1 220516Z 23021KT 19/M09 A2977 RMK A01 T01851091  RH  014%=      5-min Rain = 0
KSB1 220517Z 23017KT 19/M09 A2977 RMK A01 T01851091  RH  014%=      5-min Rain = 0
KSB1 220518Z 23020KT 18/M09 A2977 RMK A01 T01841090  RH  015%=      5-min Rain = 0
KSB1 220519Z 23019KT 18/M09 A2977 RMK A01 T01831091  RH  015%=      5-min Rain = 0
KSB1 220520Z 23018KT 18/M09 A2977 RMK A01 T01831091  RH  015%=      5-min Rain = 0
KSB1 220521Z 23019KT 18/M09 A2977 RMK A01 T01821090  RH  015%=      5-min Rain = 0
KSB1 220522Z 23018KT 18/M09 A2977 RMK A01 T01821090  RH  015%=      5-min Rain = 0
KSB1 220523Z 23017KT 18/M09 A2977 RMK A01 T01811090  RH  015%=      5-min Rain = 0
KSB1 220524Z 23018KT 18/M09 A2977 RMK A01 T01811089  RH  015%=      5-min Rain = 0
KSB1 220525Z 23017KT 18/M09 A2977 RMK A01 T01811089  RH  015%=      5-min Rain = 0
KSB1 220526Z 24018KT 18/M09 A2977 RMK A01 T01811090  RH  015%=      5-min Rain = 0
KSB1 220527Z 24015KT 18/M09 A2977 RMK A01 T01811090  RH  015%=      5-min Rain = 0
KSB1 220528Z 23016KT 18/M09 A2977 RMK A01 T01801090  RH  015%=      5-min Rain = 0
KSB1 220529Z 23015KT 18/M09 A2977 RMK A01 T01801090  RH  015%=      5-min Rain = 0
KSB1 220530Z 23016G21KT 18/M09 A2977 RMK A01 T01791090  RH  015%=      5-min Rain = 0
KSB1 220531Z 24020KT 18/M09 A2977 RMK A01 T01791090  RH  015%=      5-min Rain = 0
KSB1 220532Z 24018G23KT 18/M09 A2977 RMK A01 T01791090  RH  015%=      5-min Rain = 0
KSB1 220533Z 24018KT 18/M09 A2977 RMK A01 T01791089  RH  015%=      5-min Rain = 0
KSB1 220534Z 23018G24KT 18/M09 A2977 RMK A01 T01801089  RH  015%=      5-min Rain = 0
KSB1 220535Z 24019G24KT 18/M09 A2977 RMK A01 T01801089  RH  015%=      5-min Rain = 0
KSB1 220536Z 24021G27KT 18/M09 A2977 RMK A01 T01811089  RH  015%=      5-min Rain = 0
KSB1 220537Z 24023KT 18/M09 A2976 RMK A01 T01811089  RH  015%=      5-min Rain = 0
KSB1 220538Z 24022KT 18/M09 A2976 RMK A01 T01821088  RH  015%=      5-min Rain = 0
KSB1 220539Z 24020KT 18/M09 A2977 RMK A01 T01831088  RH  015%=      5-min Rain = 0
KSB1 220540Z 24021KT 18/M09 A2977 RMK A01 T01821088  RH  015%=      5-min Rain = 0
KSB1 220541Z 24022KT 18/M09 A2977 RMK A01 T01811088  RH  015%=      5-min Rain = 0
KSB1 220542Z 24022KT 18/M09 A2977 RMK A01 T01821088  RH  015%=      5-min Rain = 0
KSB1 220543Z 25019KT 18/M09 A2977 RMK A01 T01831087  RH  015%=      5-min Rain = 0
KSB1 220544Z 24022KT 18/M09 A2976 RMK A01 T01821087  RH  015%=      5-min Rain = 0
KSB1 220545Z 24023KT 18/M09 A2977 RMK A01 T01821088  RH  015%=      5-min Rain = 0
KSB1 220546Z 24020KT 18/M09 A2977 RMK A01 T01831087  RH  015%=      5-min Rain = 0
KSB1 220547Z 24020KT 18/M09 A2977 RMK A01 T01821087  RH  015%=      5-min Rain = 0
KSB1 220548Z 24019G25KT 18/M09 A2977 RMK A01 T01821087  RH  015%=      5-min Rain = 0
KSB1 220549Z 24020KT 18/M09 A2977 RMK A01 T01821087  RH  015%=      5-min Rain = 0
KSB1 220550Z 24019KT 18/M09 A2977 RMK A01 T01821087  RH  015%=      5-min Rain = 0
KSB1 220551Z 24020G25KT 18/M09 A2976 RMK A01 T01821086  RH  015%=      5-min Rain = 0
KSB1 220552Z 24022KT 18/M09 A2976 RMK A01 T01821086  RH  015%=      5-min Rain = 0
KSB1 220553Z 24021KT 18/M09 A2977 RMK A01 T01821086  RH  015%=      5-min Rain = 0
KSB1 220554Z 24021KT 18/M09 A2976 RMK A01 T01821086  RH  015%=      5-min Rain = 0
KSB1 220555Z 24017KT 18/M09 A2977 RMK A01 T01811086  RH  015%=      5-min Rain = 0
KSB1 220556Z 24020KT 18/M09 A2976 RMK A01 T01801086  RH  015%=      5-min Rain = 0
KSB1 220557Z 23017KT 18/M09 A2976 RMK A01 T01791087  RH  015%=      5-min Rain = 0
KSB1 220558Z 24018KT 18/M09 A2976 RMK A01 T01791086  RH  016%=      5-min Rain = 0
KSB1 220559Z 24021KT 18/M09 A2976 RMK A01 T01791086  RH  016%=      5-min Rain = 0

Page generated in 0.1946 seconds.